﻿<?xml version="1.0" encoding="UTF-8" standalone="no" ?>
<gpx xmlns="http://www.topografix.com/GPX/1/1" creator="CompeGPS" version="1.1" xmlns:xsi="http://www.w3.org/2001/XMLSchema-instance" xsi:schemaLocation="http://www.topografix.com/GPX/1/1 http://www.topografix.com/GPX/1/1/gpx.xsd http://www.garmin.com/xmlschemas/GpxExtensions/v3 http://www.garmin.com/xmlschemas/GpxExtensionsv3.xsd http://www.garmin.com/xmlschemas/TrackPointExtension/v1 http://www.garmin.com/xmlschemas/TrackPointExtensionv1.xsd" xmlns:gpxtpx="http://www.garmin.com/xmlschemas/TrackPointExtension/v1">
  <metadata>
    <link href="http://www.compegps.com">
      <text>CompeGPS TEAM, SL</text>
    </link>
    <time>2018-01-01T22:05:48Z</time>
    <bounds maxlat="42.586628" maxlon="0.045490" minlat="42.578066" minlon="0.017932"/>
  </metadata>
  <trk>
    <name>mondoto</name>
    <trkseg>
      <trkpt lat="42.578066" lon="0.017979">
        <ele>1350.2</ele>
        <time>2017-12-31T10:03:41Z</time>
      </trkpt>
      <trkpt lat="42.578090" lon="0.018019">
        <ele>1352.0</ele>
        <time>2017-12-31T10:11:24Z</time>
      </trkpt>
      <trkpt lat="42.578105" lon="0.018105">
        <ele>1353.9</ele>
        <time>2017-12-31T10:11:50Z</time>
      </trkpt>
      <trkpt lat="42.578127" lon="0.018205">
        <ele>1356.1</ele>
        <time>2017-12-31T10:12:12Z</time>
      </trkpt>
      <trkpt lat="42.578156" lon="0.018298">
        <ele>1358.9</ele>
        <time>2017-12-31T10:12:31Z</time>
      </trkpt>
      <trkpt lat="42.578208" lon="0.018397">
        <ele>1361.1</ele>
        <time>2017-12-31T10:12:50Z</time>
      </trkpt>
      <trkpt lat="42.578257" lon="0.018503">
        <ele>1363.3</ele>
        <time>2017-12-31T10:13:07Z</time>
      </trkpt>
      <trkpt lat="42.578316" lon="0.018572">
        <ele>1366.1</ele>
        <time>2017-12-31T10:13:24Z</time>
      </trkpt>
      <trkpt lat="42.578406" lon="0.018564">
        <ele>1368.7</ele>
        <time>2017-12-31T10:13:41Z</time>
      </trkpt>
      <trkpt lat="42.578496" lon="0.018556">
        <ele>1371.3</ele>
        <time>2017-12-31T10:13:55Z</time>
      </trkpt>
      <trkpt lat="42.578554" lon="0.018651">
        <ele>1373.1</ele>
        <time>2017-12-31T10:14:08Z</time>
      </trkpt>
      <trkpt lat="42.578615" lon="0.018742">
        <ele>1375.0</ele>
        <time>2017-12-31T10:14:22Z</time>
      </trkpt>
      <trkpt lat="42.578711" lon="0.018786">
        <ele>1379.6</ele>
        <time>2017-12-31T10:14:56Z</time>
      </trkpt>
      <trkpt lat="42.578781" lon="0.018744">
        <ele>1381.7</ele>
        <time>2017-12-31T10:15:11Z</time>
      </trkpt>
      <trkpt lat="42.578832" lon="0.018650">
        <ele>1383.6</ele>
        <time>2017-12-31T10:15:25Z</time>
      </trkpt>
      <trkpt lat="42.578887" lon="0.018549">
        <ele>1385.1</ele>
        <time>2017-12-31T10:15:39Z</time>
      </trkpt>
      <trkpt lat="42.578967" lon="0.018508">
        <ele>1387.4</ele>
        <time>2017-12-31T10:15:55Z</time>
      </trkpt>
      <trkpt lat="42.579028" lon="0.018421">
        <ele>1389.7</ele>
        <time>2017-12-31T10:16:10Z</time>
      </trkpt>
      <trkpt lat="42.579115" lon="0.018359">
        <ele>1390.8</ele>
        <time>2017-12-31T10:16:24Z</time>
      </trkpt>
      <trkpt lat="42.579199" lon="0.018322">
        <ele>1392.5</ele>
        <time>2017-12-31T10:16:37Z</time>
      </trkpt>
      <trkpt lat="42.579289" lon="0.018306">
        <ele>1394.5</ele>
        <time>2017-12-31T10:16:50Z</time>
      </trkpt>
      <trkpt lat="42.579344" lon="0.018424">
        <ele>1398.9</ele>
        <time>2017-12-31T10:17:20Z</time>
      </trkpt>
      <trkpt lat="42.579404" lon="0.018499">
        <ele>1401.2</ele>
        <time>2017-12-31T10:17:36Z</time>
      </trkpt>
      <trkpt lat="42.579379" lon="0.018651">
        <ele>1407.0</ele>
        <time>2017-12-31T10:18:13Z</time>
      </trkpt>
      <trkpt lat="42.579414" lon="0.018740">
        <ele>1410.2</ele>
        <time>2017-12-31T10:18:32Z</time>
      </trkpt>
      <trkpt lat="42.579413" lon="0.018877">
        <ele>1412.4</ele>
        <time>2017-12-31T10:18:49Z</time>
      </trkpt>
      <trkpt lat="42.579449" lon="0.018993">
        <ele>1414.3</ele>
        <time>2017-12-31T10:19:04Z</time>
      </trkpt>
      <trkpt lat="42.579510" lon="0.019060">
        <ele>1416.1</ele>
        <time>2017-12-31T10:19:19Z</time>
      </trkpt>
      <trkpt lat="42.579624" lon="0.019087">
        <ele>1420.0</ele>
        <time>2017-12-31T10:19:49Z</time>
      </trkpt>
      <trkpt lat="42.579686" lon="0.019020">
        <ele>1421.3</ele>
        <time>2017-12-31T10:20:00Z</time>
      </trkpt>
      <trkpt lat="42.579756" lon="0.018975">
        <ele>1422.8</ele>
        <time>2017-12-31T10:20:12Z</time>
      </trkpt>
      <trkpt lat="42.579817" lon="0.018992">
        <ele>1424.2</ele>
        <time>2017-12-31T10:20:25Z</time>
      </trkpt>
      <trkpt lat="42.579841" lon="0.019102">
        <ele>1426.2</ele>
        <time>2017-12-31T10:20:41Z</time>
      </trkpt>
      <trkpt lat="42.579872" lon="0.019211">
        <ele>1428.6</ele>
        <time>2017-12-31T10:20:59Z</time>
      </trkpt>
      <trkpt lat="42.579880" lon="0.019334">
        <ele>1430.7</ele>
        <time>2017-12-31T10:21:15Z</time>
      </trkpt>
      <trkpt lat="42.579896" lon="0.019452">
        <ele>1431.7</ele>
        <time>2017-12-31T10:21:28Z</time>
      </trkpt>
      <trkpt lat="42.579920" lon="0.019557">
        <ele>1433.1</ele>
        <time>2017-12-31T10:21:42Z</time>
      </trkpt>
      <trkpt lat="42.579939" lon="0.019684">
        <ele>1434.6</ele>
        <time>2017-12-31T10:21:56Z</time>
      </trkpt>
      <trkpt lat="42.579923" lon="0.019797">
        <ele>1436.7</ele>
        <time>2017-12-31T10:22:12Z</time>
      </trkpt>
      <trkpt lat="42.579898" lon="0.019912">
        <ele>1438.2</ele>
        <time>2017-12-31T10:22:26Z</time>
      </trkpt>
      <trkpt lat="42.579893" lon="0.020013">
        <ele>1440.2</ele>
        <time>2017-12-31T10:22:41Z</time>
      </trkpt>
      <trkpt lat="42.579970" lon="0.019952">
        <ele>1442.5</ele>
        <time>2017-12-31T10:22:59Z</time>
      </trkpt>
      <trkpt lat="42.580039" lon="0.019859">
        <ele>1444.7</ele>
        <time>2017-12-31T10:23:16Z</time>
      </trkpt>
      <trkpt lat="42.580079" lon="0.019899">
        <ele>1446.7</ele>
        <time>2017-12-31T10:23:34Z</time>
      </trkpt>
      <trkpt lat="42.580071" lon="0.020016">
        <ele>1448.9</ele>
        <time>2017-12-31T10:23:50Z</time>
      </trkpt>
      <trkpt lat="42.580109" lon="0.020132">
        <ele>1451.5</ele>
        <time>2017-12-31T10:24:07Z</time>
      </trkpt>
      <trkpt lat="42.580187" lon="0.020200">
        <ele>1453.6</ele>
        <time>2017-12-31T10:24:23Z</time>
      </trkpt>
      <trkpt lat="42.580270" lon="0.020259">
        <ele>1456.7</ele>
        <time>2017-12-31T10:24:42Z</time>
      </trkpt>
      <trkpt lat="42.580293" lon="0.020162">
        <ele>1459.6</ele>
        <time>2017-12-31T10:25:04Z</time>
      </trkpt>
      <trkpt lat="42.580370" lon="0.020079">
        <ele>1462.9</ele>
        <time>2017-12-31T10:25:26Z</time>
      </trkpt>
      <trkpt lat="42.580413" lon="0.019969">
        <ele>1464.8</ele>
        <time>2017-12-31T10:25:44Z</time>
      </trkpt>
      <trkpt lat="42.580444" lon="0.019957">
        <ele>1465.3</ele>
        <time>2017-12-31T10:27:31Z</time>
      </trkpt>
      <trkpt lat="42.580505" lon="0.020048">
        <ele>1466.9</ele>
        <time>2017-12-31T10:30:04Z</time>
      </trkpt>
      <trkpt lat="42.580509" lon="0.020165">
        <ele>1468.5</ele>
        <time>2017-12-31T10:30:24Z</time>
      </trkpt>
      <trkpt lat="42.580533" lon="0.020284">
        <ele>1469.9</ele>
        <time>2017-12-31T10:30:41Z</time>
      </trkpt>
      <trkpt lat="42.580573" lon="0.020397">
        <ele>1470.8</ele>
        <time>2017-12-31T10:30:55Z</time>
      </trkpt>
      <trkpt lat="42.580568" lon="0.020514">
        <ele>1472.8</ele>
        <time>2017-12-31T10:31:13Z</time>
      </trkpt>
      <trkpt lat="42.580525" lon="0.020632">
        <ele>1474.1</ele>
        <time>2017-12-31T10:31:28Z</time>
      </trkpt>
      <trkpt lat="42.580479" lon="0.020754">
        <ele>1475.0</ele>
        <time>2017-12-31T10:31:42Z</time>
      </trkpt>
      <trkpt lat="42.580494" lon="0.020870">
        <ele>1476.5</ele>
        <time>2017-12-31T10:31:57Z</time>
      </trkpt>
      <trkpt lat="42.580520" lon="0.020973">
        <ele>1478.4</ele>
        <time>2017-12-31T10:32:12Z</time>
      </trkpt>
      <trkpt lat="42.580542" lon="0.021086">
        <ele>1480.2</ele>
        <time>2017-12-31T10:32:27Z</time>
      </trkpt>
      <trkpt lat="42.580576" lon="0.021192">
        <ele>1481.9</ele>
        <time>2017-12-31T10:32:43Z</time>
      </trkpt>
      <trkpt lat="42.580595" lon="0.021300">
        <ele>1484.3</ele>
        <time>2017-12-31T10:32:59Z</time>
      </trkpt>
      <trkpt lat="42.580575" lon="0.021434">
        <ele>1484.8</ele>
        <time>2017-12-31T10:34:55Z</time>
      </trkpt>
      <trkpt lat="42.580596" lon="0.021535">
        <ele>1485.7</ele>
        <time>2017-12-31T10:35:10Z</time>
      </trkpt>
      <trkpt lat="42.580631" lon="0.021658">
        <ele>1486.9</ele>
        <time>2017-12-31T10:35:24Z</time>
      </trkpt>
      <trkpt lat="42.580665" lon="0.021774">
        <ele>1488.2</ele>
        <time>2017-12-31T10:35:35Z</time>
      </trkpt>
      <trkpt lat="42.580685" lon="0.021892">
        <ele>1489.0</ele>
        <time>2017-12-31T10:35:47Z</time>
      </trkpt>
      <trkpt lat="42.580623" lon="0.021994">
        <ele>1489.8</ele>
        <time>2017-12-31T10:36:02Z</time>
      </trkpt>
      <trkpt lat="42.580623" lon="0.022120">
        <ele>1491.8</ele>
        <time>2017-12-31T10:36:18Z</time>
      </trkpt>
      <trkpt lat="42.580634" lon="0.022236">
        <ele>1493.6</ele>
        <time>2017-12-31T10:36:32Z</time>
      </trkpt>
      <trkpt lat="42.580687" lon="0.022328">
        <ele>1496.3</ele>
        <time>2017-12-31T10:36:49Z</time>
      </trkpt>
      <trkpt lat="42.580689" lon="0.022455">
        <ele>1498.9</ele>
        <time>2017-12-31T10:37:06Z</time>
      </trkpt>
      <trkpt lat="42.580661" lon="0.022570">
        <ele>1500.9</ele>
        <time>2017-12-31T10:37:55Z</time>
      </trkpt>
      <trkpt lat="42.580642" lon="0.022689">
        <ele>1501.6</ele>
        <time>2017-12-31T10:38:08Z</time>
      </trkpt>
      <trkpt lat="42.580608" lon="0.022797">
        <ele>1502.9</ele>
        <time>2017-12-31T10:38:21Z</time>
      </trkpt>
      <trkpt lat="42.580588" lon="0.022919">
        <ele>1503.7</ele>
        <time>2017-12-31T10:38:34Z</time>
      </trkpt>
      <trkpt lat="42.580551" lon="0.023028">
        <ele>1504.7</ele>
        <time>2017-12-31T10:38:47Z</time>
      </trkpt>
      <trkpt lat="42.580542" lon="0.023155">
        <ele>1505.2</ele>
        <time>2017-12-31T10:39:01Z</time>
      </trkpt>
      <trkpt lat="42.580500" lon="0.023272">
        <ele>1506.1</ele>
        <time>2017-12-31T10:39:14Z</time>
      </trkpt>
      <trkpt lat="42.580481" lon="0.023391">
        <ele>1506.8</ele>
        <time>2017-12-31T10:39:28Z</time>
      </trkpt>
      <trkpt lat="42.580443" lon="0.023509">
        <ele>1507.4</ele>
        <time>2017-12-31T10:39:41Z</time>
      </trkpt>
      <trkpt lat="42.580416" lon="0.023626">
        <ele>1507.7</ele>
        <time>2017-12-31T10:39:54Z</time>
      </trkpt>
      <trkpt lat="42.580404" lon="0.023744">
        <ele>1509.1</ele>
        <time>2017-12-31T10:40:10Z</time>
      </trkpt>
      <trkpt lat="42.580403" lon="0.023866">
        <ele>1509.8</ele>
        <time>2017-12-31T10:40:24Z</time>
      </trkpt>
      <trkpt lat="42.580445" lon="0.023966">
        <ele>1511.6</ele>
        <time>2017-12-31T10:40:38Z</time>
      </trkpt>
      <trkpt lat="42.580441" lon="0.024086">
        <ele>1513.4</ele>
        <time>2017-12-31T10:40:55Z</time>
      </trkpt>
      <trkpt lat="42.580447" lon="0.024198">
        <ele>1514.7</ele>
        <time>2017-12-31T10:41:12Z</time>
      </trkpt>
      <trkpt lat="42.580481" lon="0.024313">
        <ele>1517.2</ele>
        <time>2017-12-31T10:41:28Z</time>
      </trkpt>
      <trkpt lat="42.580505" lon="0.024432">
        <ele>1519.4</ele>
        <time>2017-12-31T10:41:44Z</time>
      </trkpt>
      <trkpt lat="42.580492" lon="0.024546">
        <ele>1521.9</ele>
        <time>2017-12-31T10:43:54Z</time>
      </trkpt>
      <trkpt lat="42.580460" lon="0.024647">
        <ele>1522.4</ele>
        <time>2017-12-31T10:46:41Z</time>
      </trkpt>
      <trkpt lat="42.580447" lon="0.024761">
        <ele>1523.5</ele>
        <time>2017-12-31T10:46:56Z</time>
      </trkpt>
      <trkpt lat="42.580466" lon="0.024867">
        <ele>1525.0</ele>
        <time>2017-12-31T10:47:10Z</time>
      </trkpt>
      <trkpt lat="42.580471" lon="0.024987">
        <ele>1527.3</ele>
        <time>2017-12-31T10:47:25Z</time>
      </trkpt>
      <trkpt lat="42.580493" lon="0.025104">
        <ele>1528.7</ele>
        <time>2017-12-31T10:47:41Z</time>
      </trkpt>
      <trkpt lat="42.580504" lon="0.025228">
        <ele>1530.6</ele>
        <time>2017-12-31T10:47:58Z</time>
      </trkpt>
      <trkpt lat="42.580520" lon="0.025341">
        <ele>1531.7</ele>
        <time>2017-12-31T10:48:13Z</time>
      </trkpt>
      <trkpt lat="42.580508" lon="0.025465">
        <ele>1533.2</ele>
        <time>2017-12-31T10:48:27Z</time>
      </trkpt>
      <trkpt lat="42.580505" lon="0.025593">
        <ele>1534.6</ele>
        <time>2017-12-31T10:48:44Z</time>
      </trkpt>
      <trkpt lat="42.580519" lon="0.025710">
        <ele>1536.0</ele>
        <time>2017-12-31T10:48:59Z</time>
      </trkpt>
      <trkpt lat="42.580521" lon="0.025830">
        <ele>1537.2</ele>
        <time>2017-12-31T10:49:14Z</time>
      </trkpt>
      <trkpt lat="42.580552" lon="0.025946">
        <ele>1539.1</ele>
        <time>2017-12-31T10:49:31Z</time>
      </trkpt>
      <trkpt lat="42.580574" lon="0.026059">
        <ele>1541.2</ele>
        <time>2017-12-31T10:49:48Z</time>
      </trkpt>
      <trkpt lat="42.580615" lon="0.026159">
        <ele>1543.3</ele>
        <time>2017-12-31T10:50:06Z</time>
      </trkpt>
      <trkpt lat="42.580653" lon="0.026271">
        <ele>1546.1</ele>
        <time>2017-12-31T10:50:26Z</time>
      </trkpt>
      <trkpt lat="42.580664" lon="0.026388">
        <ele>1547.8</ele>
        <time>2017-12-31T10:50:44Z</time>
      </trkpt>
      <trkpt lat="42.580651" lon="0.026519">
        <ele>1549.0</ele>
        <time>2017-12-31T10:50:59Z</time>
      </trkpt>
      <trkpt lat="42.580625" lon="0.026650">
        <ele>1550.0</ele>
        <time>2017-12-31T10:51:13Z</time>
      </trkpt>
      <trkpt lat="42.580635" lon="0.026769">
        <ele>1551.1</ele>
        <time>2017-12-31T10:51:30Z</time>
      </trkpt>
      <trkpt lat="42.580656" lon="0.026882">
        <ele>1553.4</ele>
        <time>2017-12-31T10:51:50Z</time>
      </trkpt>
      <trkpt lat="42.580643" lon="0.027007">
        <ele>1554.3</ele>
        <time>2017-12-31T10:52:06Z</time>
      </trkpt>
      <trkpt lat="42.580632" lon="0.027124">
        <ele>1555.6</ele>
        <time>2017-12-31T10:52:21Z</time>
      </trkpt>
      <trkpt lat="42.580660" lon="0.027197">
        <ele>1557.2</ele>
        <time>2017-12-31T10:52:36Z</time>
      </trkpt>
      <trkpt lat="42.580732" lon="0.027125">
        <ele>1559.0</ele>
        <time>2017-12-31T10:52:56Z</time>
      </trkpt>
      <trkpt lat="42.580787" lon="0.027200">
        <ele>1561.7</ele>
        <time>2017-12-31T10:53:16Z</time>
      </trkpt>
      <trkpt lat="42.580799" lon="0.027318">
        <ele>1563.7</ele>
        <time>2017-12-31T10:53:33Z</time>
      </trkpt>
      <trkpt lat="42.580803" lon="0.027427">
        <ele>1565.6</ele>
        <time>2017-12-31T10:53:48Z</time>
      </trkpt>
      <trkpt lat="42.580803" lon="0.027544">
        <ele>1567.2</ele>
        <time>2017-12-31T10:54:04Z</time>
      </trkpt>
      <trkpt lat="42.580830" lon="0.027665">
        <ele>1569.6</ele>
        <time>2017-12-31T10:54:23Z</time>
      </trkpt>
      <trkpt lat="42.580827" lon="0.027792">
        <ele>1570.9</ele>
        <time>2017-12-31T10:54:39Z</time>
      </trkpt>
      <trkpt lat="42.580844" lon="0.027918">
        <ele>1572.6</ele>
        <time>2017-12-31T10:54:55Z</time>
      </trkpt>
      <trkpt lat="42.580870" lon="0.028039">
        <ele>1575.1</ele>
        <time>2017-12-31T10:55:10Z</time>
      </trkpt>
      <trkpt lat="42.580875" lon="0.028167">
        <ele>1576.0</ele>
        <time>2017-12-31T10:55:25Z</time>
      </trkpt>
      <trkpt lat="42.580878" lon="0.028292">
        <ele>1577.8</ele>
        <time>2017-12-31T10:55:39Z</time>
      </trkpt>
      <trkpt lat="42.580919" lon="0.028391">
        <ele>1579.2</ele>
        <time>2017-12-31T10:56:31Z</time>
      </trkpt>
      <trkpt lat="42.580936" lon="0.028501">
        <ele>1580.9</ele>
        <time>2017-12-31T10:56:49Z</time>
      </trkpt>
      <trkpt lat="42.580972" lon="0.028613">
        <ele>1582.4</ele>
        <time>2017-12-31T10:57:05Z</time>
      </trkpt>
      <trkpt lat="42.581026" lon="0.028678">
        <ele>1584.2</ele>
        <time>2017-12-31T10:57:23Z</time>
      </trkpt>
      <trkpt lat="42.581105" lon="0.028675">
        <ele>1586.6</ele>
        <time>2017-12-31T10:57:41Z</time>
      </trkpt>
      <trkpt lat="42.581110" lon="0.028790">
        <ele>1588.4</ele>
        <time>2017-12-31T10:57:58Z</time>
      </trkpt>
      <trkpt lat="42.581138" lon="0.028901">
        <ele>1590.1</ele>
        <time>2017-12-31T10:58:15Z</time>
      </trkpt>
      <trkpt lat="42.581172" lon="0.029015">
        <ele>1591.6</ele>
        <time>2017-12-31T10:58:30Z</time>
      </trkpt>
      <trkpt lat="42.581180" lon="0.029131">
        <ele>1592.5</ele>
        <time>2017-12-31T10:58:44Z</time>
      </trkpt>
      <trkpt lat="42.581196" lon="0.029246">
        <ele>1593.9</ele>
        <time>2017-12-31T10:58:59Z</time>
      </trkpt>
      <trkpt lat="42.581283" lon="0.029251">
        <ele>1595.8</ele>
        <time>2017-12-31T10:59:15Z</time>
      </trkpt>
      <trkpt lat="42.581363" lon="0.029201">
        <ele>1597.9</ele>
        <time>2017-12-31T10:59:32Z</time>
      </trkpt>
      <trkpt lat="42.581411" lon="0.029252">
        <ele>1599.9</ele>
        <time>2017-12-31T10:59:52Z</time>
      </trkpt>
      <trkpt lat="42.581454" lon="0.029360">
        <ele>1601.4</ele>
        <time>2017-12-31T11:00:07Z</time>
      </trkpt>
      <trkpt lat="42.581529" lon="0.029436">
        <ele>1603.4</ele>
        <time>2017-12-31T11:00:26Z</time>
      </trkpt>
      <trkpt lat="42.581567" lon="0.029543">
        <ele>1605.3</ele>
        <time>2017-12-31T11:00:41Z</time>
      </trkpt>
      <trkpt lat="42.581635" lon="0.029638">
        <ele>1606.9</ele>
        <time>2017-12-31T11:00:56Z</time>
      </trkpt>
      <trkpt lat="42.581682" lon="0.029726">
        <ele>1608.4</ele>
        <time>2017-12-31T11:01:12Z</time>
      </trkpt>
      <trkpt lat="42.581724" lon="0.029807">
        <ele>1610.1</ele>
        <time>2017-12-31T11:01:27Z</time>
      </trkpt>
      <trkpt lat="42.581726" lon="0.029873">
        <ele>1610.7</ele>
        <time>2017-12-31T11:01:39Z</time>
      </trkpt>
      <trkpt lat="42.581760" lon="0.029971">
        <ele>1612.5</ele>
        <time>2017-12-31T11:01:57Z</time>
      </trkpt>
      <trkpt lat="42.581837" lon="0.029909">
        <ele>1614.6</ele>
        <time>2017-12-31T11:02:17Z</time>
      </trkpt>
      <trkpt lat="42.581915" lon="0.029923">
        <ele>1616.2</ele>
        <time>2017-12-31T11:02:33Z</time>
      </trkpt>
      <trkpt lat="42.581973" lon="0.030003">
        <ele>1618.2</ele>
        <time>2017-12-31T11:02:49Z</time>
      </trkpt>
      <trkpt lat="42.582020" lon="0.030089">
        <ele>1619.5</ele>
        <time>2017-12-31T11:03:03Z</time>
      </trkpt>
      <trkpt lat="42.582086" lon="0.030158">
        <ele>1620.8</ele>
        <time>2017-12-31T11:03:20Z</time>
      </trkpt>
      <trkpt lat="42.582177" lon="0.030181">
        <ele>1623.1</ele>
        <time>2017-12-31T11:03:40Z</time>
      </trkpt>
      <trkpt lat="42.582262" lon="0.030230">
        <ele>1625.2</ele>
        <time>2017-12-31T11:04:00Z</time>
      </trkpt>
      <trkpt lat="42.582351" lon="0.030297">
        <ele>1627.6</ele>
        <time>2017-12-31T11:04:19Z</time>
      </trkpt>
      <trkpt lat="42.582431" lon="0.030374">
        <ele>1629.8</ele>
        <time>2017-12-31T11:04:38Z</time>
      </trkpt>
      <trkpt lat="42.582492" lon="0.030463">
        <ele>1631.0</ele>
        <time>2017-12-31T11:04:51Z</time>
      </trkpt>
      <trkpt lat="42.582562" lon="0.030538">
        <ele>1631.8</ele>
        <time>2017-12-31T11:05:03Z</time>
      </trkpt>
      <trkpt lat="42.582668" lon="0.030544">
        <ele>1633.1</ele>
        <time>2017-12-31T11:05:16Z</time>
      </trkpt>
      <trkpt lat="42.582747" lon="0.030540">
        <ele>1634.6</ele>
        <time>2017-12-31T11:05:30Z</time>
      </trkpt>
      <trkpt lat="42.582819" lon="0.030571">
        <ele>1635.9</ele>
        <time>2017-12-31T11:05:43Z</time>
      </trkpt>
      <trkpt lat="42.582892" lon="0.030585">
        <ele>1637.8</ele>
        <time>2017-12-31T11:06:02Z</time>
      </trkpt>
      <trkpt lat="42.582986" lon="0.030577">
        <ele>1639.2</ele>
        <time>2017-12-31T11:06:15Z</time>
      </trkpt>
      <trkpt lat="42.583027" lon="0.030584">
        <ele>1642.8</ele>
        <time>2017-12-31T11:15:13Z</time>
      </trkpt>
      <trkpt lat="42.583110" lon="0.030568">
        <ele>1644.4</ele>
        <time>2017-12-31T11:15:29Z</time>
      </trkpt>
      <trkpt lat="42.583194" lon="0.030564">
        <ele>1646.6</ele>
        <time>2017-12-31T11:15:45Z</time>
      </trkpt>
      <trkpt lat="42.583290" lon="0.030551">
        <ele>1648.2</ele>
        <time>2017-12-31T11:16:00Z</time>
      </trkpt>
      <trkpt lat="42.583381" lon="0.030504">
        <ele>1649.7</ele>
        <time>2017-12-31T11:16:16Z</time>
      </trkpt>
      <trkpt lat="42.583483" lon="0.030474">
        <ele>1651.3</ele>
        <time>2017-12-31T11:16:31Z</time>
      </trkpt>
      <trkpt lat="42.583568" lon="0.030452">
        <ele>1652.6</ele>
        <time>2017-12-31T11:16:44Z</time>
      </trkpt>
      <trkpt lat="42.583652" lon="0.030403">
        <ele>1654.5</ele>
        <time>2017-12-31T11:16:58Z</time>
      </trkpt>
      <trkpt lat="42.583741" lon="0.030351">
        <ele>1656.0</ele>
        <time>2017-12-31T11:17:18Z</time>
      </trkpt>
      <trkpt lat="42.583826" lon="0.030338">
        <ele>1657.6</ele>
        <time>2017-12-31T11:17:43Z</time>
      </trkpt>
      <trkpt lat="42.583917" lon="0.030289">
        <ele>1659.5</ele>
        <time>2017-12-31T11:18:29Z</time>
      </trkpt>
      <trkpt lat="42.583995" lon="0.030321">
        <ele>1660.3</ele>
        <time>2017-12-31T11:18:52Z</time>
      </trkpt>
      <trkpt lat="42.584047" lon="0.030381">
        <ele>1661.7</ele>
        <time>2017-12-31T11:19:26Z</time>
      </trkpt>
      <trkpt lat="42.584125" lon="0.030433">
        <ele>1663.2</ele>
        <time>2017-12-31T11:19:43Z</time>
      </trkpt>
      <trkpt lat="42.584174" lon="0.030530">
        <ele>1664.2</ele>
        <time>2017-12-31T11:20:03Z</time>
      </trkpt>
      <trkpt lat="42.584173" lon="0.030632">
        <ele>1665.7</ele>
        <time>2017-12-31T11:20:19Z</time>
      </trkpt>
      <trkpt lat="42.584134" lon="0.030725">
        <ele>1668.5</ele>
        <time>2017-12-31T11:20:40Z</time>
      </trkpt>
      <trkpt lat="42.584105" lon="0.030838">
        <ele>1670.9</ele>
        <time>2017-12-31T11:21:00Z</time>
      </trkpt>
      <trkpt lat="42.584177" lon="0.030897">
        <ele>1673.6</ele>
        <time>2017-12-31T11:21:17Z</time>
      </trkpt>
      <trkpt lat="42.584242" lon="0.030977">
        <ele>1675.8</ele>
        <time>2017-12-31T11:21:37Z</time>
      </trkpt>
      <trkpt lat="42.584318" lon="0.031011">
        <ele>1678.1</ele>
        <time>2017-12-31T11:21:55Z</time>
      </trkpt>
      <trkpt lat="42.584398" lon="0.030979">
        <ele>1680.3</ele>
        <time>2017-12-31T11:22:18Z</time>
      </trkpt>
      <trkpt lat="42.584482" lon="0.031015">
        <ele>1682.5</ele>
        <time>2017-12-31T11:22:38Z</time>
      </trkpt>
      <trkpt lat="42.584567" lon="0.031038">
        <ele>1685.1</ele>
        <time>2017-12-31T11:22:56Z</time>
      </trkpt>
      <trkpt lat="42.584653" lon="0.031021">
        <ele>1687.5</ele>
        <time>2017-12-31T11:23:14Z</time>
      </trkpt>
      <trkpt lat="42.584743" lon="0.031020">
        <ele>1690.2</ele>
        <time>2017-12-31T11:23:33Z</time>
      </trkpt>
      <trkpt lat="42.584832" lon="0.031041">
        <ele>1692.7</ele>
        <time>2017-12-31T11:23:50Z</time>
      </trkpt>
      <trkpt lat="42.584932" lon="0.031015">
        <ele>1694.5</ele>
        <time>2017-12-31T11:24:07Z</time>
      </trkpt>
      <trkpt lat="42.585024" lon="0.030977">
        <ele>1696.3</ele>
        <time>2017-12-31T11:24:25Z</time>
      </trkpt>
      <trkpt lat="42.585121" lon="0.030947">
        <ele>1699.0</ele>
        <time>2017-12-31T11:24:44Z</time>
      </trkpt>
      <trkpt lat="42.585225" lon="0.030966">
        <ele>1700.8</ele>
        <time>2017-12-31T11:25:07Z</time>
      </trkpt>
      <trkpt lat="42.585313" lon="0.030970">
        <ele>1703.8</ele>
        <time>2017-12-31T11:25:27Z</time>
      </trkpt>
      <trkpt lat="42.585403" lon="0.030944">
        <ele>1706.4</ele>
        <time>2017-12-31T11:25:44Z</time>
      </trkpt>
      <trkpt lat="42.585462" lon="0.030992">
        <ele>1708.5</ele>
        <time>2017-12-31T11:26:04Z</time>
      </trkpt>
      <trkpt lat="42.585485" lon="0.031109">
        <ele>1710.4</ele>
        <time>2017-12-31T11:26:20Z</time>
      </trkpt>
      <trkpt lat="42.585502" lon="0.031224">
        <ele>1712.4</ele>
        <time>2017-12-31T11:26:40Z</time>
      </trkpt>
      <trkpt lat="42.585498" lon="0.031342">
        <ele>1713.7</ele>
        <time>2017-12-31T11:27:02Z</time>
      </trkpt>
      <trkpt lat="42.585540" lon="0.031443">
        <ele>1716.0</ele>
        <time>2017-12-31T11:27:20Z</time>
      </trkpt>
      <trkpt lat="42.585550" lon="0.031544">
        <ele>1718.2</ele>
        <time>2017-12-31T11:27:38Z</time>
      </trkpt>
      <trkpt lat="42.585567" lon="0.031653">
        <ele>1719.6</ele>
        <time>2017-12-31T11:27:52Z</time>
      </trkpt>
      <trkpt lat="42.585649" lon="0.031726">
        <ele>1721.8</ele>
        <time>2017-12-31T11:28:14Z</time>
      </trkpt>
      <trkpt lat="42.585678" lon="0.031820">
        <ele>1724.3</ele>
        <time>2017-12-31T11:28:33Z</time>
      </trkpt>
      <trkpt lat="42.585745" lon="0.031898">
        <ele>1727.7</ele>
        <time>2017-12-31T11:28:56Z</time>
      </trkpt>
      <trkpt lat="42.585802" lon="0.031976">
        <ele>1729.7</ele>
        <time>2017-12-31T11:29:16Z</time>
      </trkpt>
      <trkpt lat="42.585812" lon="0.032086">
        <ele>1730.9</ele>
        <time>2017-12-31T11:29:33Z</time>
      </trkpt>
      <trkpt lat="42.585841" lon="0.032214">
        <ele>1733.0</ele>
        <time>2017-12-31T11:32:01Z</time>
      </trkpt>
      <trkpt lat="42.585843" lon="0.032338">
        <ele>1735.2</ele>
        <time>2017-12-31T11:32:29Z</time>
      </trkpt>
      <trkpt lat="42.585868" lon="0.032456">
        <ele>1737.0</ele>
        <time>2017-12-31T11:32:44Z</time>
      </trkpt>
      <trkpt lat="42.585870" lon="0.032602">
        <ele>1739.0</ele>
        <time>2017-12-31T11:32:58Z</time>
      </trkpt>
      <trkpt lat="42.585877" lon="0.032719">
        <ele>1741.0</ele>
        <time>2017-12-31T11:33:13Z</time>
      </trkpt>
      <trkpt lat="42.585883" lon="0.032837">
        <ele>1743.2</ele>
        <time>2017-12-31T11:33:53Z</time>
      </trkpt>
      <trkpt lat="42.585900" lon="0.032954">
        <ele>1745.4</ele>
        <time>2017-12-31T11:34:08Z</time>
      </trkpt>
      <trkpt lat="42.585907" lon="0.033096">
        <ele>1747.4</ele>
        <time>2017-12-31T11:34:24Z</time>
      </trkpt>
      <trkpt lat="42.585955" lon="0.033200">
        <ele>1749.3</ele>
        <time>2017-12-31T11:34:37Z</time>
      </trkpt>
      <trkpt lat="42.585981" lon="0.033327">
        <ele>1752.1</ele>
        <time>2017-12-31T11:34:55Z</time>
      </trkpt>
      <trkpt lat="42.585994" lon="0.033445">
        <ele>1754.0</ele>
        <time>2017-12-31T11:35:09Z</time>
      </trkpt>
      <trkpt lat="42.586011" lon="0.033566">
        <ele>1756.6</ele>
        <time>2017-12-31T11:35:25Z</time>
      </trkpt>
      <trkpt lat="42.586010" lon="0.033697">
        <ele>1758.6</ele>
        <time>2017-12-31T11:35:40Z</time>
      </trkpt>
      <trkpt lat="42.586058" lon="0.033816">
        <ele>1760.3</ele>
        <time>2017-12-31T11:35:56Z</time>
      </trkpt>
      <trkpt lat="42.586106" lon="0.033920">
        <ele>1761.7</ele>
        <time>2017-12-31T11:36:10Z</time>
      </trkpt>
      <trkpt lat="42.586159" lon="0.034024">
        <ele>1763.7</ele>
        <time>2017-12-31T11:36:25Z</time>
      </trkpt>
      <trkpt lat="42.586189" lon="0.034149">
        <ele>1765.8</ele>
        <time>2017-12-31T11:36:41Z</time>
      </trkpt>
      <trkpt lat="42.586247" lon="0.034256">
        <ele>1768.8</ele>
        <time>2017-12-31T11:36:58Z</time>
      </trkpt>
      <trkpt lat="42.586283" lon="0.034372">
        <ele>1771.5</ele>
        <time>2017-12-31T11:37:14Z</time>
      </trkpt>
      <trkpt lat="42.586306" lon="0.034491">
        <ele>1774.4</ele>
        <time>2017-12-31T11:37:29Z</time>
      </trkpt>
      <trkpt lat="42.586327" lon="0.034611">
        <ele>1777.1</ele>
        <time>2017-12-31T11:37:46Z</time>
      </trkpt>
      <trkpt lat="42.586341" lon="0.034725">
        <ele>1780.2</ele>
        <time>2017-12-31T11:38:05Z</time>
      </trkpt>
      <trkpt lat="42.586367" lon="0.034827">
        <ele>1783.3</ele>
        <time>2017-12-31T11:38:23Z</time>
      </trkpt>
      <trkpt lat="42.586428" lon="0.034926">
        <ele>1785.8</ele>
        <time>2017-12-31T11:38:39Z</time>
      </trkpt>
      <trkpt lat="42.586479" lon="0.035025">
        <ele>1788.6</ele>
        <time>2017-12-31T11:38:56Z</time>
      </trkpt>
      <trkpt lat="42.586537" lon="0.035115">
        <ele>1791.1</ele>
        <time>2017-12-31T11:39:11Z</time>
      </trkpt>
      <trkpt lat="42.586576" lon="0.035220">
        <ele>1793.6</ele>
        <time>2017-12-31T11:39:26Z</time>
      </trkpt>
      <trkpt lat="42.586599" lon="0.035336">
        <ele>1796.4</ele>
        <time>2017-12-31T11:39:48Z</time>
      </trkpt>
      <trkpt lat="42.586608" lon="0.035461">
        <ele>1797.5</ele>
        <time>2017-12-31T11:40:14Z</time>
      </trkpt>
      <trkpt lat="42.586619" lon="0.035576">
        <ele>1799.6</ele>
        <time>2017-12-31T11:40:27Z</time>
      </trkpt>
      <trkpt lat="42.586626" lon="0.035701">
        <ele>1801.9</ele>
        <time>2017-12-31T11:40:46Z</time>
      </trkpt>
      <trkpt lat="42.586628" lon="0.035829">
        <ele>1804.0</ele>
        <time>2017-12-31T11:41:02Z</time>
      </trkpt>
      <trkpt lat="42.586618" lon="0.035952">
        <ele>1805.7</ele>
        <time>2017-12-31T11:41:20Z</time>
      </trkpt>
      <trkpt lat="42.586600" lon="0.036068">
        <ele>1806.9</ele>
        <time>2017-12-31T11:41:36Z</time>
      </trkpt>
      <trkpt lat="42.586557" lon="0.036122">
        <ele>1808.1</ele>
        <time>2017-12-31T11:42:57Z</time>
      </trkpt>
      <trkpt lat="42.586479" lon="0.036133">
        <ele>1808.9</ele>
        <time>2017-12-31T11:47:13Z</time>
      </trkpt>
      <trkpt lat="42.586418" lon="0.036204">
        <ele>1811.0</ele>
        <time>2017-12-31T11:47:36Z</time>
      </trkpt>
      <trkpt lat="42.586365" lon="0.036322">
        <ele>1811.8</ele>
        <time>2017-12-31T11:47:47Z</time>
      </trkpt>
      <trkpt lat="42.586399" lon="0.036417">
        <ele>1812.3</ele>
        <time>2017-12-31T11:47:57Z</time>
      </trkpt>
      <trkpt lat="42.586370" lon="0.036543">
        <ele>1812.2</ele>
        <time>2017-12-31T11:48:08Z</time>
      </trkpt>
      <trkpt lat="42.586321" lon="0.036658">
        <ele>1812.3</ele>
        <time>2017-12-31T11:48:19Z</time>
      </trkpt>
      <trkpt lat="42.586276" lon="0.036763">
        <ele>1812.5</ele>
        <time>2017-12-31T11:48:30Z</time>
      </trkpt>
      <trkpt lat="42.586227" lon="0.036872">
        <ele>1812.6</ele>
        <time>2017-12-31T11:48:41Z</time>
      </trkpt>
      <trkpt lat="42.586174" lon="0.036980">
        <ele>1813.0</ele>
        <time>2017-12-31T11:48:52Z</time>
      </trkpt>
      <trkpt lat="42.586154" lon="0.037099">
        <ele>1813.7</ele>
        <time>2017-12-31T11:49:05Z</time>
      </trkpt>
      <trkpt lat="42.586120" lon="0.037215">
        <ele>1815.5</ele>
        <time>2017-12-31T11:49:18Z</time>
      </trkpt>
      <trkpt lat="42.586108" lon="0.037342">
        <ele>1817.3</ele>
        <time>2017-12-31T11:49:32Z</time>
      </trkpt>
      <trkpt lat="42.586110" lon="0.037466">
        <ele>1819.2</ele>
        <time>2017-12-31T11:49:46Z</time>
      </trkpt>
      <trkpt lat="42.586097" lon="0.037588">
        <ele>1821.1</ele>
        <time>2017-12-31T11:50:01Z</time>
      </trkpt>
      <trkpt lat="42.586060" lon="0.037694">
        <ele>1823.4</ele>
        <time>2017-12-31T11:50:16Z</time>
      </trkpt>
      <trkpt lat="42.586018" lon="0.037813">
        <ele>1825.2</ele>
        <time>2017-12-31T11:50:31Z</time>
      </trkpt>
      <trkpt lat="42.585981" lon="0.037931">
        <ele>1827.2</ele>
        <time>2017-12-31T11:50:45Z</time>
      </trkpt>
      <trkpt lat="42.585948" lon="0.038054">
        <ele>1829.7</ele>
        <time>2017-12-31T11:51:01Z</time>
      </trkpt>
      <trkpt lat="42.585937" lon="0.038174">
        <ele>1832.3</ele>
        <time>2017-12-31T11:51:16Z</time>
      </trkpt>
      <trkpt lat="42.585912" lon="0.038288">
        <ele>1834.6</ele>
        <time>2017-12-31T11:51:29Z</time>
      </trkpt>
      <trkpt lat="42.585878" lon="0.038401">
        <ele>1836.7</ele>
        <time>2017-12-31T11:51:44Z</time>
      </trkpt>
      <trkpt lat="42.585841" lon="0.038517">
        <ele>1839.4</ele>
        <time>2017-12-31T11:52:00Z</time>
      </trkpt>
      <trkpt lat="42.585808" lon="0.038641">
        <ele>1841.7</ele>
        <time>2017-12-31T11:52:15Z</time>
      </trkpt>
      <trkpt lat="42.585805" lon="0.038770">
        <ele>1843.7</ele>
        <time>2017-12-31T11:52:30Z</time>
      </trkpt>
      <trkpt lat="42.585807" lon="0.038894">
        <ele>1846.0</ele>
        <time>2017-12-31T11:52:45Z</time>
      </trkpt>
      <trkpt lat="42.585796" lon="0.039018">
        <ele>1848.6</ele>
        <time>2017-12-31T11:52:59Z</time>
      </trkpt>
      <trkpt lat="42.585752" lon="0.039129">
        <ele>1851.3</ele>
        <time>2017-12-31T11:53:14Z</time>
      </trkpt>
      <trkpt lat="42.585705" lon="0.039232">
        <ele>1853.4</ele>
        <time>2017-12-31T11:53:27Z</time>
      </trkpt>
      <trkpt lat="42.585664" lon="0.039340">
        <ele>1855.8</ele>
        <time>2017-12-31T11:53:41Z</time>
      </trkpt>
      <trkpt lat="42.585620" lon="0.039448">
        <ele>1857.6</ele>
        <time>2017-12-31T11:53:54Z</time>
      </trkpt>
      <trkpt lat="42.585583" lon="0.039566">
        <ele>1859.1</ele>
        <time>2017-12-31T11:54:07Z</time>
      </trkpt>
      <trkpt lat="42.585550" lon="0.039683">
        <ele>1861.0</ele>
        <time>2017-12-31T11:54:21Z</time>
      </trkpt>
      <trkpt lat="42.585519" lon="0.039757">
        <ele>1862.8</ele>
        <time>2017-12-31T11:59:17Z</time>
      </trkpt>
      <trkpt lat="42.585496" lon="0.039880">
        <ele>1864.4</ele>
        <time>2017-12-31T11:59:29Z</time>
      </trkpt>
      <trkpt lat="42.585486" lon="0.040012">
        <ele>1866.2</ele>
        <time>2017-12-31T11:59:41Z</time>
      </trkpt>
      <trkpt lat="42.585455" lon="0.040139">
        <ele>1868.4</ele>
        <time>2017-12-31T11:59:54Z</time>
      </trkpt>
      <trkpt lat="42.585436" lon="0.040262">
        <ele>1870.9</ele>
        <time>2017-12-31T12:00:07Z</time>
      </trkpt>
      <trkpt lat="42.585419" lon="0.040390">
        <ele>1872.5</ele>
        <time>2017-12-31T12:00:20Z</time>
      </trkpt>
      <trkpt lat="42.585391" lon="0.040517">
        <ele>1874.5</ele>
        <time>2017-12-31T12:00:34Z</time>
      </trkpt>
      <trkpt lat="42.585353" lon="0.040633">
        <ele>1875.9</ele>
        <time>2017-12-31T12:00:46Z</time>
      </trkpt>
      <trkpt lat="42.585322" lon="0.040759">
        <ele>1877.9</ele>
        <time>2017-12-31T12:00:59Z</time>
      </trkpt>
      <trkpt lat="42.585286" lon="0.040872">
        <ele>1879.7</ele>
        <time>2017-12-31T12:01:11Z</time>
      </trkpt>
      <trkpt lat="42.585238" lon="0.040978">
        <ele>1881.8</ele>
        <time>2017-12-31T12:01:23Z</time>
      </trkpt>
      <trkpt lat="42.585181" lon="0.041086">
        <ele>1883.0</ele>
        <time>2017-12-31T12:01:35Z</time>
      </trkpt>
      <trkpt lat="42.585132" lon="0.041194">
        <ele>1885.2</ele>
        <time>2017-12-31T12:01:57Z</time>
      </trkpt>
      <trkpt lat="42.585091" lon="0.041312">
        <ele>1886.7</ele>
        <time>2017-12-31T12:02:11Z</time>
      </trkpt>
      <trkpt lat="42.585050" lon="0.041424">
        <ele>1888.2</ele>
        <time>2017-12-31T12:02:24Z</time>
      </trkpt>
      <trkpt lat="42.585013" lon="0.041535">
        <ele>1889.3</ele>
        <time>2017-12-31T12:02:35Z</time>
      </trkpt>
      <trkpt lat="42.584999" lon="0.041660">
        <ele>1890.6</ele>
        <time>2017-12-31T12:02:46Z</time>
      </trkpt>
      <trkpt lat="42.584986" lon="0.041787">
        <ele>1891.7</ele>
        <time>2017-12-31T12:02:58Z</time>
      </trkpt>
      <trkpt lat="42.584978" lon="0.041915">
        <ele>1893.1</ele>
        <time>2017-12-31T12:03:10Z</time>
      </trkpt>
      <trkpt lat="42.584968" lon="0.042046">
        <ele>1894.2</ele>
        <time>2017-12-31T12:03:22Z</time>
      </trkpt>
      <trkpt lat="42.584953" lon="0.042164">
        <ele>1895.7</ele>
        <time>2017-12-31T12:03:35Z</time>
      </trkpt>
      <trkpt lat="42.584934" lon="0.042289">
        <ele>1897.0</ele>
        <time>2017-12-31T12:03:49Z</time>
      </trkpt>
      <trkpt lat="42.584923" lon="0.042416">
        <ele>1898.7</ele>
        <time>2017-12-31T12:04:08Z</time>
      </trkpt>
      <trkpt lat="42.584928" lon="0.042542">
        <ele>1899.9</ele>
        <time>2017-12-31T12:04:23Z</time>
      </trkpt>
      <trkpt lat="42.584933" lon="0.042670">
        <ele>1901.2</ele>
        <time>2017-12-31T12:04:36Z</time>
      </trkpt>
      <trkpt lat="42.584927" lon="0.042799">
        <ele>1902.4</ele>
        <time>2017-12-31T12:04:51Z</time>
      </trkpt>
      <trkpt lat="42.584916" lon="0.042918">
        <ele>1903.2</ele>
        <time>2017-12-31T12:05:04Z</time>
      </trkpt>
      <trkpt lat="42.584884" lon="0.043039">
        <ele>1904.9</ele>
        <time>2017-12-31T12:05:18Z</time>
      </trkpt>
      <trkpt lat="42.584851" lon="0.043164">
        <ele>1905.9</ele>
        <time>2017-12-31T12:05:31Z</time>
      </trkpt>
      <trkpt lat="42.584815" lon="0.043284">
        <ele>1906.8</ele>
        <time>2017-12-31T12:05:44Z</time>
      </trkpt>
      <trkpt lat="42.584764" lon="0.043402">
        <ele>1908.2</ele>
        <time>2017-12-31T12:05:58Z</time>
      </trkpt>
      <trkpt lat="42.584743" lon="0.043521">
        <ele>1909.4</ele>
        <time>2017-12-31T12:06:13Z</time>
      </trkpt>
      <trkpt lat="42.584734" lon="0.043639">
        <ele>1910.9</ele>
        <time>2017-12-31T12:06:33Z</time>
      </trkpt>
      <trkpt lat="42.584733" lon="0.043764">
        <ele>1911.8</ele>
        <time>2017-12-31T12:06:47Z</time>
      </trkpt>
      <trkpt lat="42.584719" lon="0.043888">
        <ele>1913.5</ele>
        <time>2017-12-31T12:07:02Z</time>
      </trkpt>
      <trkpt lat="42.584695" lon="0.044008">
        <ele>1915.0</ele>
        <time>2017-12-31T12:07:18Z</time>
      </trkpt>
      <trkpt lat="42.584684" lon="0.044129">
        <ele>1916.7</ele>
        <time>2017-12-31T12:07:34Z</time>
      </trkpt>
      <trkpt lat="42.584636" lon="0.044240">
        <ele>1919.5</ele>
        <time>2017-12-31T12:07:54Z</time>
      </trkpt>
      <trkpt lat="42.584584" lon="0.044340">
        <ele>1924.0</ele>
        <time>2017-12-31T12:08:20Z</time>
      </trkpt>
      <trkpt lat="42.584504" lon="0.044364">
        <ele>1926.9</ele>
        <time>2017-12-31T12:09:01Z</time>
      </trkpt>
      <trkpt lat="42.584408" lon="0.044377">
        <ele>1930.3</ele>
        <time>2017-12-31T12:09:50Z</time>
      </trkpt>
      <trkpt lat="42.584312" lon="0.044412">
        <ele>1933.0</ele>
        <time>2017-12-31T12:10:07Z</time>
      </trkpt>
      <trkpt lat="42.584226" lon="0.044480">
        <ele>1935.3</ele>
        <time>2017-12-31T12:10:21Z</time>
      </trkpt>
      <trkpt lat="42.584147" lon="0.044558">
        <ele>1937.7</ele>
        <time>2017-12-31T12:10:35Z</time>
      </trkpt>
      <trkpt lat="42.584084" lon="0.044648">
        <ele>1939.8</ele>
        <time>2017-12-31T12:10:50Z</time>
      </trkpt>
      <trkpt lat="42.584020" lon="0.044744">
        <ele>1942.5</ele>
        <time>2017-12-31T12:11:08Z</time>
      </trkpt>
      <trkpt lat="42.583951" lon="0.044829">
        <ele>1944.7</ele>
        <time>2017-12-31T12:11:24Z</time>
      </trkpt>
      <trkpt lat="42.583876" lon="0.044893">
        <ele>1946.9</ele>
        <time>2017-12-31T12:11:41Z</time>
      </trkpt>
      <trkpt lat="42.583791" lon="0.044946">
        <ele>1949.2</ele>
        <time>2017-12-31T12:11:58Z</time>
      </trkpt>
      <trkpt lat="42.583709" lon="0.045016">
        <ele>1951.5</ele>
        <time>2017-12-31T12:12:16Z</time>
      </trkpt>
      <trkpt lat="42.583660" lon="0.045102">
        <ele>1954.4</ele>
        <time>2017-12-31T12:12:33Z</time>
      </trkpt>
      <trkpt lat="42.583584" lon="0.045153">
        <ele>1955.7</ele>
        <time>2017-12-31T12:22:04Z</time>
      </trkpt>
      <trkpt lat="42.583533" lon="0.045060">
        <ele>1954.7</ele>
        <time>2017-12-31T12:22:16Z</time>
      </trkpt>
      <trkpt lat="42.583447" lon="0.044996">
        <ele>1953.2</ele>
        <time>2017-12-31T12:22:27Z</time>
      </trkpt>
      <trkpt lat="42.583344" lon="0.044999">
        <ele>1951.8</ele>
        <time>2017-12-31T12:22:36Z</time>
      </trkpt>
      <trkpt lat="42.583259" lon="0.045051">
        <ele>1951.7</ele>
        <time>2017-12-31T12:22:42Z</time>
      </trkpt>
      <trkpt lat="42.583225" lon="0.045169">
        <ele>1952.6</ele>
        <time>2017-12-31T12:22:48Z</time>
      </trkpt>
      <trkpt lat="42.583214" lon="0.045289">
        <ele>1954.7</ele>
        <time>2017-12-31T12:23:01Z</time>
      </trkpt>
      <trkpt lat="42.583206" lon="0.045420">
        <ele>1955.2</ele>
        <time>2017-12-31T12:23:07Z</time>
      </trkpt>
      <trkpt lat="42.583206" lon="0.045490">
        <ele>1956.4</ele>
        <time>2017-12-31T12:23:31Z</time>
      </trkpt>
      <trkpt lat="42.583196" lon="0.045441">
        <ele>1962.5</ele>
        <time>2017-12-31T13:34:26Z</time>
      </trkpt>
      <trkpt lat="42.583166" lon="0.045388">
        <ele>1963.4</ele>
        <time>2017-12-31T13:40:15Z</time>
      </trkpt>
      <trkpt lat="42.583192" lon="0.045276">
        <ele>1963.2</ele>
        <time>2017-12-31T13:40:49Z</time>
      </trkpt>
      <trkpt lat="42.583185" lon="0.045163">
        <ele>1962.5</ele>
        <time>2017-12-31T13:41:02Z</time>
      </trkpt>
      <trkpt lat="42.583200" lon="0.045045">
        <ele>1961.8</ele>
        <time>2017-12-31T13:41:13Z</time>
      </trkpt>
      <trkpt lat="42.583269" lon="0.044955">
        <ele>1961.1</ele>
        <time>2017-12-31T13:41:26Z</time>
      </trkpt>
      <trkpt lat="42.583379" lon="0.044932">
        <ele>1960.2</ele>
        <time>2017-12-31T13:41:44Z</time>
      </trkpt>
      <trkpt lat="42.583478" lon="0.044952">
        <ele>1960.3</ele>
        <time>2017-12-31T13:42:00Z</time>
      </trkpt>
      <trkpt lat="42.583576" lon="0.044936">
        <ele>1960.5</ele>
        <time>2017-12-31T13:42:23Z</time>
      </trkpt>
      <trkpt lat="42.583668" lon="0.044895">
        <ele>1959.1</ele>
        <time>2017-12-31T13:42:39Z</time>
      </trkpt>
      <trkpt lat="42.583753" lon="0.044837">
        <ele>1956.4</ele>
        <time>2017-12-31T13:42:51Z</time>
      </trkpt>
      <trkpt lat="42.583820" lon="0.044759">
        <ele>1951.6</ele>
        <time>2017-12-31T13:43:23Z</time>
      </trkpt>
      <trkpt lat="42.583888" lon="0.044669">
        <ele>1950.4</ele>
        <time>2017-12-31T13:43:32Z</time>
      </trkpt>
      <trkpt lat="42.583955" lon="0.044579">
        <ele>1947.6</ele>
        <time>2017-12-31T13:43:41Z</time>
      </trkpt>
      <trkpt lat="42.584031" lon="0.044494">
        <ele>1945.7</ele>
        <time>2017-12-31T13:43:52Z</time>
      </trkpt>
      <trkpt lat="42.584130" lon="0.044451">
        <ele>1943.6</ele>
        <time>2017-12-31T13:44:03Z</time>
      </trkpt>
      <trkpt lat="42.584229" lon="0.044420">
        <ele>1942.2</ele>
        <time>2017-12-31T13:44:15Z</time>
      </trkpt>
      <trkpt lat="42.584327" lon="0.044365">
        <ele>1940.0</ele>
        <time>2017-12-31T13:44:25Z</time>
      </trkpt>
      <trkpt lat="42.584424" lon="0.044348">
        <ele>1936.6</ele>
        <time>2017-12-31T13:44:38Z</time>
      </trkpt>
      <trkpt lat="42.584537" lon="0.044331">
        <ele>1932.9</ele>
        <time>2017-12-31T13:44:54Z</time>
      </trkpt>
      <trkpt lat="42.584613" lon="0.044241">
        <ele>1928.4</ele>
        <time>2017-12-31T13:45:09Z</time>
      </trkpt>
      <trkpt lat="42.584646" lon="0.044153">
        <ele>1923.4</ele>
        <time>2017-12-31T13:45:29Z</time>
      </trkpt>
      <trkpt lat="42.584667" lon="0.044127">
        <ele>1921.5</ele>
        <time>2017-12-31T13:46:44Z</time>
      </trkpt>
      <trkpt lat="42.584662" lon="0.044116">
        <ele>1921.3</ele>
        <time>2017-12-31T13:47:25Z</time>
      </trkpt>
      <trkpt lat="42.584668" lon="0.044025">
        <ele>1921.1</ele>
        <time>2017-12-31T13:48:12Z</time>
      </trkpt>
      <trkpt lat="42.584688" lon="0.043895">
        <ele>1919.7</ele>
        <time>2017-12-31T13:48:21Z</time>
      </trkpt>
      <trkpt lat="42.584706" lon="0.043763">
        <ele>1918.6</ele>
        <time>2017-12-31T13:48:30Z</time>
      </trkpt>
      <trkpt lat="42.584715" lon="0.043628">
        <ele>1916.4</ele>
        <time>2017-12-31T13:48:40Z</time>
      </trkpt>
      <trkpt lat="42.584725" lon="0.043502">
        <ele>1915.2</ele>
        <time>2017-12-31T13:48:48Z</time>
      </trkpt>
      <trkpt lat="42.584754" lon="0.043370">
        <ele>1913.9</ele>
        <time>2017-12-31T13:48:56Z</time>
      </trkpt>
      <trkpt lat="42.584805" lon="0.043251">
        <ele>1912.3</ele>
        <time>2017-12-31T13:49:05Z</time>
      </trkpt>
      <trkpt lat="42.584842" lon="0.043131">
        <ele>1910.8</ele>
        <time>2017-12-31T13:49:13Z</time>
      </trkpt>
      <trkpt lat="42.584878" lon="0.043005">
        <ele>1909.6</ele>
        <time>2017-12-31T13:49:23Z</time>
      </trkpt>
      <trkpt lat="42.584914" lon="0.042881">
        <ele>1908.8</ele>
        <time>2017-12-31T13:49:33Z</time>
      </trkpt>
      <trkpt lat="42.584917" lon="0.042752">
        <ele>1907.4</ele>
        <time>2017-12-31T13:49:46Z</time>
      </trkpt>
      <trkpt lat="42.584925" lon="0.042628">
        <ele>1906.6</ele>
        <time>2017-12-31T13:49:56Z</time>
      </trkpt>
      <trkpt lat="42.584912" lon="0.042454">
        <ele>1902.8</ele>
        <time>2017-12-31T13:50:42Z</time>
      </trkpt>
      <trkpt lat="42.584908" lon="0.042359">
        <ele>1903.0</ele>
        <time>2017-12-31T13:51:20Z</time>
      </trkpt>
      <trkpt lat="42.584923" lon="0.042238">
        <ele>1902.2</ele>
        <time>2017-12-31T13:51:30Z</time>
      </trkpt>
      <trkpt lat="42.584946" lon="0.042108">
        <ele>1900.9</ele>
        <time>2017-12-31T13:51:39Z</time>
      </trkpt>
      <trkpt lat="42.584955" lon="0.041983">
        <ele>1899.3</ele>
        <time>2017-12-31T13:51:48Z</time>
      </trkpt>
      <trkpt lat="42.584969" lon="0.041859">
        <ele>1898.5</ele>
        <time>2017-12-31T13:51:57Z</time>
      </trkpt>
      <trkpt lat="42.584977" lon="0.041729">
        <ele>1897.5</ele>
        <time>2017-12-31T13:52:06Z</time>
      </trkpt>
      <trkpt lat="42.584986" lon="0.041600">
        <ele>1896.6</ele>
        <time>2017-12-31T13:52:14Z</time>
      </trkpt>
      <trkpt lat="42.585008" lon="0.041482">
        <ele>1895.6</ele>
        <time>2017-12-31T13:52:22Z</time>
      </trkpt>
      <trkpt lat="42.585045" lon="0.041363">
        <ele>1894.4</ele>
        <time>2017-12-31T13:52:30Z</time>
      </trkpt>
      <trkpt lat="42.585085" lon="0.041246">
        <ele>1892.9</ele>
        <time>2017-12-31T13:52:38Z</time>
      </trkpt>
      <trkpt lat="42.585123" lon="0.041124">
        <ele>1891.7</ele>
        <time>2017-12-31T13:52:46Z</time>
      </trkpt>
      <trkpt lat="42.585177" lon="0.041016">
        <ele>1890.1</ele>
        <time>2017-12-31T13:52:54Z</time>
      </trkpt>
      <trkpt lat="42.585234" lon="0.040905">
        <ele>1888.1</ele>
        <time>2017-12-31T13:53:03Z</time>
      </trkpt>
      <trkpt lat="42.585286" lon="0.040786">
        <ele>1886.7</ele>
        <time>2017-12-31T13:53:12Z</time>
      </trkpt>
      <trkpt lat="42.585323" lon="0.040669">
        <ele>1885.1</ele>
        <time>2017-12-31T13:53:20Z</time>
      </trkpt>
      <trkpt lat="42.585350" lon="0.040547">
        <ele>1882.8</ele>
        <time>2017-12-31T13:53:28Z</time>
      </trkpt>
      <trkpt lat="42.585388" lon="0.040422">
        <ele>1880.7</ele>
        <time>2017-12-31T13:53:37Z</time>
      </trkpt>
      <trkpt lat="42.585405" lon="0.040301">
        <ele>1878.7</ele>
        <time>2017-12-31T13:53:46Z</time>
      </trkpt>
      <trkpt lat="42.585432" lon="0.040173">
        <ele>1876.6</ele>
        <time>2017-12-31T13:53:56Z</time>
      </trkpt>
      <trkpt lat="42.585452" lon="0.040040">
        <ele>1874.9</ele>
        <time>2017-12-31T13:54:06Z</time>
      </trkpt>
      <trkpt lat="42.585478" lon="0.039928">
        <ele>1872.3</ele>
        <time>2017-12-31T13:54:17Z</time>
      </trkpt>
      <trkpt lat="42.585492" lon="0.039796">
        <ele>1870.5</ele>
        <time>2017-12-31T13:54:27Z</time>
      </trkpt>
      <trkpt lat="42.585528" lon="0.039679">
        <ele>1869.0</ele>
        <time>2017-12-31T13:54:36Z</time>
      </trkpt>
      <trkpt lat="42.585566" lon="0.039551">
        <ele>1866.8</ele>
        <time>2017-12-31T13:54:45Z</time>
      </trkpt>
      <trkpt lat="42.585602" lon="0.039436">
        <ele>1865.3</ele>
        <time>2017-12-31T13:54:53Z</time>
      </trkpt>
      <trkpt lat="42.585643" lon="0.039324">
        <ele>1863.2</ele>
        <time>2017-12-31T13:55:01Z</time>
      </trkpt>
      <trkpt lat="42.585687" lon="0.039205">
        <ele>1861.4</ele>
        <time>2017-12-31T13:55:10Z</time>
      </trkpt>
      <trkpt lat="42.585734" lon="0.039100">
        <ele>1858.6</ele>
        <time>2017-12-31T13:55:19Z</time>
      </trkpt>
      <trkpt lat="42.585782" lon="0.039003">
        <ele>1855.9</ele>
        <time>2017-12-31T13:55:32Z</time>
      </trkpt>
      <trkpt lat="42.585794" lon="0.038881">
        <ele>1854.3</ele>
        <time>2017-12-31T13:55:41Z</time>
      </trkpt>
      <trkpt lat="42.585782" lon="0.038748">
        <ele>1851.5</ele>
        <time>2017-12-31T13:55:51Z</time>
      </trkpt>
      <trkpt lat="42.585790" lon="0.038626">
        <ele>1848.7</ele>
        <time>2017-12-31T13:56:01Z</time>
      </trkpt>
      <trkpt lat="42.585819" lon="0.038507">
        <ele>1846.9</ele>
        <time>2017-12-31T13:56:11Z</time>
      </trkpt>
      <trkpt lat="42.585857" lon="0.038394">
        <ele>1844.1</ele>
        <time>2017-12-31T13:56:21Z</time>
      </trkpt>
      <trkpt lat="42.585891" lon="0.038279">
        <ele>1841.2</ele>
        <time>2017-12-31T13:56:32Z</time>
      </trkpt>
      <trkpt lat="42.585920" lon="0.038147">
        <ele>1838.2</ele>
        <time>2017-12-31T13:56:57Z</time>
      </trkpt>
      <trkpt lat="42.585931" lon="0.038017">
        <ele>1836.3</ele>
        <time>2017-12-31T13:57:08Z</time>
      </trkpt>
      <trkpt lat="42.585963" lon="0.037897">
        <ele>1833.2</ele>
        <time>2017-12-31T13:57:18Z</time>
      </trkpt>
      <trkpt lat="42.586006" lon="0.037781">
        <ele>1830.4</ele>
        <time>2017-12-31T13:57:28Z</time>
      </trkpt>
      <trkpt lat="42.586048" lon="0.037670">
        <ele>1828.4</ele>
        <time>2017-12-31T13:57:38Z</time>
      </trkpt>
      <trkpt lat="42.586087" lon="0.037549">
        <ele>1826.2</ele>
        <time>2017-12-31T13:57:48Z</time>
      </trkpt>
      <trkpt lat="42.586093" lon="0.037431">
        <ele>1824.2</ele>
        <time>2017-12-31T13:57:57Z</time>
      </trkpt>
      <trkpt lat="42.586085" lon="0.037302">
        <ele>1822.3</ele>
        <time>2017-12-31T13:58:06Z</time>
      </trkpt>
      <trkpt lat="42.586096" lon="0.037242">
        <ele>1819.7</ele>
        <time>2017-12-31T14:03:20Z</time>
      </trkpt>
      <trkpt lat="42.586112" lon="0.037121">
        <ele>1818.8</ele>
        <time>2017-12-31T14:04:06Z</time>
      </trkpt>
      <trkpt lat="42.586129" lon="0.036997">
        <ele>1817.2</ele>
        <time>2017-12-31T14:04:17Z</time>
      </trkpt>
      <trkpt lat="42.586174" lon="0.036897">
        <ele>1815.9</ele>
        <time>2017-12-31T14:04:30Z</time>
      </trkpt>
      <trkpt lat="42.586228" lon="0.036794">
        <ele>1815.4</ele>
        <time>2017-12-31T14:04:43Z</time>
      </trkpt>
      <trkpt lat="42.586275" lon="0.036692">
        <ele>1815.2</ele>
        <time>2017-12-31T14:04:53Z</time>
      </trkpt>
      <trkpt lat="42.586309" lon="0.036573">
        <ele>1815.3</ele>
        <time>2017-12-31T14:05:03Z</time>
      </trkpt>
      <trkpt lat="42.586357" lon="0.036454">
        <ele>1815.2</ele>
        <time>2017-12-31T14:05:14Z</time>
      </trkpt>
      <trkpt lat="42.586372" lon="0.036322">
        <ele>1814.7</ele>
        <time>2017-12-31T14:05:27Z</time>
      </trkpt>
      <trkpt lat="42.586383" lon="0.036195">
        <ele>1814.4</ele>
        <time>2017-12-31T14:05:43Z</time>
      </trkpt>
      <trkpt lat="42.586443" lon="0.036108">
        <ele>1813.4</ele>
        <time>2017-12-31T14:05:55Z</time>
      </trkpt>
      <trkpt lat="42.586542" lon="0.036065">
        <ele>1811.8</ele>
        <time>2017-12-31T14:06:06Z</time>
      </trkpt>
      <trkpt lat="42.586589" lon="0.035955">
        <ele>1810.0</ele>
        <time>2017-12-31T14:06:18Z</time>
      </trkpt>
      <trkpt lat="42.586596" lon="0.035822">
        <ele>1808.4</ele>
        <time>2017-12-31T14:06:28Z</time>
      </trkpt>
      <trkpt lat="42.586607" lon="0.035773">
        <ele>1806.2</ele>
        <time>2017-12-31T14:06:57Z</time>
      </trkpt>
      <trkpt lat="42.586604" lon="0.035640">
        <ele>1805.5</ele>
        <time>2017-12-31T14:07:06Z</time>
      </trkpt>
      <trkpt lat="42.586599" lon="0.035505">
        <ele>1803.7</ele>
        <time>2017-12-31T14:07:15Z</time>
      </trkpt>
      <trkpt lat="42.586584" lon="0.035377">
        <ele>1801.4</ele>
        <time>2017-12-31T14:07:24Z</time>
      </trkpt>
      <trkpt lat="42.586569" lon="0.035246">
        <ele>1799.6</ele>
        <time>2017-12-31T14:07:33Z</time>
      </trkpt>
      <trkpt lat="42.586545" lon="0.035134">
        <ele>1797.1</ele>
        <time>2017-12-31T14:07:44Z</time>
      </trkpt>
      <trkpt lat="42.586490" lon="0.035038">
        <ele>1795.5</ele>
        <time>2017-12-31T14:07:53Z</time>
      </trkpt>
      <trkpt lat="42.586436" lon="0.034923">
        <ele>1793.2</ele>
        <time>2017-12-31T14:08:02Z</time>
      </trkpt>
      <trkpt lat="42.586387" lon="0.034837">
        <ele>1790.0</ele>
        <time>2017-12-31T14:08:13Z</time>
      </trkpt>
      <trkpt lat="42.586352" lon="0.034716">
        <ele>1787.9</ele>
        <time>2017-12-31T14:08:21Z</time>
      </trkpt>
      <trkpt lat="42.586326" lon="0.034601">
        <ele>1785.2</ele>
        <time>2017-12-31T14:08:29Z</time>
      </trkpt>
      <trkpt lat="42.586299" lon="0.034467">
        <ele>1782.0</ele>
        <time>2017-12-31T14:08:37Z</time>
      </trkpt>
      <trkpt lat="42.586269" lon="0.034335">
        <ele>1777.9</ele>
        <time>2017-12-31T14:08:45Z</time>
      </trkpt>
      <trkpt lat="42.586219" lon="0.034206">
        <ele>1773.7</ele>
        <time>2017-12-31T14:08:56Z</time>
      </trkpt>
      <trkpt lat="42.586167" lon="0.034071">
        <ele>1771.1</ele>
        <time>2017-12-31T14:09:06Z</time>
      </trkpt>
      <trkpt lat="42.586131" lon="0.033957">
        <ele>1768.3</ele>
        <time>2017-12-31T14:09:14Z</time>
      </trkpt>
      <trkpt lat="42.586074" lon="0.033861">
        <ele>1766.6</ele>
        <time>2017-12-31T14:09:20Z</time>
      </trkpt>
      <trkpt lat="42.586024" lon="0.033755">
        <ele>1764.0</ele>
        <time>2017-12-31T14:09:29Z</time>
      </trkpt>
      <trkpt lat="42.585966" lon="0.033656">
        <ele>1761.9</ele>
        <time>2017-12-31T14:09:39Z</time>
      </trkpt>
      <trkpt lat="42.585954" lon="0.033553">
        <ele>1760.7</ele>
        <time>2017-12-31T14:09:47Z</time>
      </trkpt>
      <trkpt lat="42.585993" lon="0.033439">
        <ele>1759.7</ele>
        <time>2017-12-31T14:09:57Z</time>
      </trkpt>
      <trkpt lat="42.585984" lon="0.033370">
        <ele>1757.9</ele>
        <time>2017-12-31T14:11:20Z</time>
      </trkpt>
      <trkpt lat="42.585963" lon="0.033241">
        <ele>1756.6</ele>
        <time>2017-12-31T14:11:30Z</time>
      </trkpt>
      <trkpt lat="42.585910" lon="0.033132">
        <ele>1753.9</ele>
        <time>2017-12-31T14:11:41Z</time>
      </trkpt>
      <trkpt lat="42.585881" lon="0.033002">
        <ele>1751.7</ele>
        <time>2017-12-31T14:11:51Z</time>
      </trkpt>
      <trkpt lat="42.585857" lon="0.032878">
        <ele>1750.1</ele>
        <time>2017-12-31T14:12:00Z</time>
      </trkpt>
      <trkpt lat="42.585850" lon="0.032763">
        <ele>1746.8</ele>
        <time>2017-12-31T14:12:24Z</time>
      </trkpt>
      <trkpt lat="42.585867" lon="0.032697">
        <ele>1744.4</ele>
        <time>2017-12-31T14:13:09Z</time>
      </trkpt>
      <trkpt lat="42.585867" lon="0.032641">
        <ele>1742.9</ele>
        <time>2017-12-31T14:14:11Z</time>
      </trkpt>
      <trkpt lat="42.585864" lon="0.032594">
        <ele>1741.9</ele>
        <time>2017-12-31T14:15:35Z</time>
      </trkpt>
      <trkpt lat="42.585850" lon="0.032448">
        <ele>1741.4</ele>
        <time>2017-12-31T14:15:40Z</time>
      </trkpt>
      <trkpt lat="42.585815" lon="0.032319">
        <ele>1740.0</ele>
        <time>2017-12-31T14:15:45Z</time>
      </trkpt>
      <trkpt lat="42.585794" lon="0.032204">
        <ele>1738.2</ele>
        <time>2017-12-31T14:15:50Z</time>
      </trkpt>
      <trkpt lat="42.585782" lon="0.032067">
        <ele>1734.1</ele>
        <time>2017-12-31T14:17:54Z</time>
      </trkpt>
      <trkpt lat="42.585793" lon="0.031948">
        <ele>1732.6</ele>
        <time>2017-12-31T14:18:03Z</time>
      </trkpt>
      <trkpt lat="42.585765" lon="0.031830">
        <ele>1730.9</ele>
        <time>2017-12-31T14:18:12Z</time>
      </trkpt>
      <trkpt lat="42.585735" lon="0.031710">
        <ele>1728.8</ele>
        <time>2017-12-31T14:18:20Z</time>
      </trkpt>
      <trkpt lat="42.585653" lon="0.031638">
        <ele>1726.0</ele>
        <time>2017-12-31T14:18:31Z</time>
      </trkpt>
      <trkpt lat="42.585554" lon="0.031644">
        <ele>1724.1</ele>
        <time>2017-12-31T14:18:40Z</time>
      </trkpt>
      <trkpt lat="42.585544" lon="0.031551">
        <ele>1721.2</ele>
        <time>2017-12-31T14:18:57Z</time>
      </trkpt>
      <trkpt lat="42.585558" lon="0.031417">
        <ele>1719.6</ele>
        <time>2017-12-31T14:23:10Z</time>
      </trkpt>
      <trkpt lat="42.585510" lon="0.031343">
        <ele>1719.3</ele>
        <time>2017-12-31T14:23:38Z</time>
      </trkpt>
      <trkpt lat="42.585473" lon="0.031196">
        <ele>1714.4</ele>
        <time>2017-12-31T14:25:05Z</time>
      </trkpt>
      <trkpt lat="42.585466" lon="0.031077">
        <ele>1713.7</ele>
        <time>2017-12-31T14:25:13Z</time>
      </trkpt>
      <trkpt lat="42.585449" lon="0.030950">
        <ele>1712.1</ele>
        <time>2017-12-31T14:25:21Z</time>
      </trkpt>
      <trkpt lat="42.585356" lon="0.030955">
        <ele>1710.1</ele>
        <time>2017-12-31T14:25:30Z</time>
      </trkpt>
      <trkpt lat="42.585261" lon="0.030972">
        <ele>1708.1</ele>
        <time>2017-12-31T14:25:40Z</time>
      </trkpt>
      <trkpt lat="42.585168" lon="0.030950">
        <ele>1705.2</ele>
        <time>2017-12-31T14:25:47Z</time>
      </trkpt>
      <trkpt lat="42.585068" lon="0.030974">
        <ele>1702.1</ele>
        <time>2017-12-31T14:25:56Z</time>
      </trkpt>
      <trkpt lat="42.584964" lon="0.030980">
        <ele>1699.1</ele>
        <time>2017-12-31T14:26:06Z</time>
      </trkpt>
      <trkpt lat="42.584872" lon="0.030995">
        <ele>1697.6</ele>
        <time>2017-12-31T14:26:14Z</time>
      </trkpt>
      <trkpt lat="42.584771" lon="0.030989">
        <ele>1695.7</ele>
        <time>2017-12-31T14:26:23Z</time>
      </trkpt>
      <trkpt lat="42.584683" lon="0.030949">
        <ele>1692.9</ele>
        <time>2017-12-31T14:26:35Z</time>
      </trkpt>
      <trkpt lat="42.584584" lon="0.030959">
        <ele>1689.4</ele>
        <time>2017-12-31T14:27:12Z</time>
      </trkpt>
      <trkpt lat="42.584511" lon="0.030956">
        <ele>1688.6</ele>
        <time>2017-12-31T14:27:45Z</time>
      </trkpt>
      <trkpt lat="42.584425" lon="0.030926">
        <ele>1686.4</ele>
        <time>2017-12-31T14:27:55Z</time>
      </trkpt>
      <trkpt lat="42.584334" lon="0.030943">
        <ele>1684.1</ele>
        <time>2017-12-31T14:28:04Z</time>
      </trkpt>
      <trkpt lat="42.584243" lon="0.030924">
        <ele>1681.8</ele>
        <time>2017-12-31T14:28:15Z</time>
      </trkpt>
      <trkpt lat="42.584162" lon="0.030852">
        <ele>1680.0</ele>
        <time>2017-12-31T14:28:23Z</time>
      </trkpt>
      <trkpt lat="42.584081" lon="0.030805">
        <ele>1677.2</ele>
        <time>2017-12-31T14:28:33Z</time>
      </trkpt>
      <trkpt lat="42.584096" lon="0.030714">
        <ele>1674.8</ele>
        <time>2017-12-31T14:28:50Z</time>
      </trkpt>
      <trkpt lat="42.584155" lon="0.030636">
        <ele>1672.2</ele>
        <time>2017-12-31T14:29:01Z</time>
      </trkpt>
      <trkpt lat="42.584175" lon="0.030525">
        <ele>1669.8</ele>
        <time>2017-12-31T14:29:11Z</time>
      </trkpt>
      <trkpt lat="42.584141" lon="0.030397">
        <ele>1668.2</ele>
        <time>2017-12-31T14:29:21Z</time>
      </trkpt>
      <trkpt lat="42.584064" lon="0.030318">
        <ele>1667.3</ele>
        <time>2017-12-31T14:29:32Z</time>
      </trkpt>
      <trkpt lat="42.583999" lon="0.030232">
        <ele>1665.7</ele>
        <time>2017-12-31T14:29:46Z</time>
      </trkpt>
      <trkpt lat="42.583904" lon="0.030232">
        <ele>1664.3</ele>
        <time>2017-12-31T14:30:02Z</time>
      </trkpt>
      <trkpt lat="42.583817" lon="0.030280">
        <ele>1662.4</ele>
        <time>2017-12-31T14:30:16Z</time>
      </trkpt>
      <trkpt lat="42.583705" lon="0.030317">
        <ele>1661.0</ele>
        <time>2017-12-31T14:30:27Z</time>
      </trkpt>
      <trkpt lat="42.583641" lon="0.030376">
        <ele>1659.7</ele>
        <time>2017-12-31T14:30:39Z</time>
      </trkpt>
      <trkpt lat="42.583565" lon="0.030372">
        <ele>1658.6</ele>
        <time>2017-12-31T14:33:18Z</time>
      </trkpt>
      <trkpt lat="42.583538" lon="0.030406">
        <ele>1658.6</ele>
        <time>2017-12-31T14:34:50Z</time>
      </trkpt>
      <trkpt lat="42.583450" lon="0.030442">
        <ele>1657.7</ele>
        <time>2017-12-31T14:35:01Z</time>
      </trkpt>
      <trkpt lat="42.583357" lon="0.030500">
        <ele>1656.4</ele>
        <time>2017-12-31T14:35:11Z</time>
      </trkpt>
      <trkpt lat="42.583261" lon="0.030521">
        <ele>1654.8</ele>
        <time>2017-12-31T14:35:23Z</time>
      </trkpt>
      <trkpt lat="42.583178" lon="0.030538">
        <ele>1653.3</ele>
        <time>2017-12-31T14:35:34Z</time>
      </trkpt>
      <trkpt lat="42.583082" lon="0.030561">
        <ele>1651.4</ele>
        <time>2017-12-31T14:35:44Z</time>
      </trkpt>
      <trkpt lat="42.582984" lon="0.030563">
        <ele>1649.9</ele>
        <time>2017-12-31T14:35:53Z</time>
      </trkpt>
      <trkpt lat="42.582891" lon="0.030567">
        <ele>1647.8</ele>
        <time>2017-12-31T14:36:05Z</time>
      </trkpt>
      <trkpt lat="42.582784" lon="0.030540">
        <ele>1645.5</ele>
        <time>2017-12-31T14:36:33Z</time>
      </trkpt>
      <trkpt lat="42.582669" lon="0.030508">
        <ele>1643.6</ele>
        <time>2017-12-31T14:36:48Z</time>
      </trkpt>
      <trkpt lat="42.582537" lon="0.030508">
        <ele>1641.6</ele>
        <time>2017-12-31T14:37:05Z</time>
      </trkpt>
      <trkpt lat="42.582481" lon="0.030466">
        <ele>1640.0</ele>
        <time>2017-12-31T14:37:23Z</time>
      </trkpt>
      <trkpt lat="42.582417" lon="0.030372">
        <ele>1639.3</ele>
        <time>2017-12-31T14:37:34Z</time>
      </trkpt>
      <trkpt lat="42.582342" lon="0.030302">
        <ele>1637.9</ele>
        <time>2017-12-31T14:37:48Z</time>
      </trkpt>
      <trkpt lat="42.582267" lon="0.030234">
        <ele>1635.6</ele>
        <time>2017-12-31T14:37:59Z</time>
      </trkpt>
      <trkpt lat="42.582183" lon="0.030196">
        <ele>1633.7</ele>
        <time>2017-12-31T14:38:07Z</time>
      </trkpt>
      <trkpt lat="42.582087" lon="0.030171">
        <ele>1631.8</ele>
        <time>2017-12-31T14:38:16Z</time>
      </trkpt>
      <trkpt lat="42.581999" lon="0.030124">
        <ele>1629.6</ele>
        <time>2017-12-31T14:38:27Z</time>
      </trkpt>
      <trkpt lat="42.581939" lon="0.030033">
        <ele>1628.1</ele>
        <time>2017-12-31T14:38:38Z</time>
      </trkpt>
      <trkpt lat="42.581891" lon="0.029931">
        <ele>1626.1</ele>
        <time>2017-12-31T14:38:51Z</time>
      </trkpt>
      <trkpt lat="42.581801" lon="0.029885">
        <ele>1623.3</ele>
        <time>2017-12-31T14:39:08Z</time>
      </trkpt>
      <trkpt lat="42.581710" lon="0.029925">
        <ele>1621.4</ele>
        <time>2017-12-31T14:39:21Z</time>
      </trkpt>
      <trkpt lat="42.581674" lon="0.029853">
        <ele>1619.1</ele>
        <time>2017-12-31T14:39:40Z</time>
      </trkpt>
      <trkpt lat="42.581666" lon="0.029736">
        <ele>1617.7</ele>
        <time>2017-12-31T14:39:50Z</time>
      </trkpt>
      <trkpt lat="42.581606" lon="0.029638">
        <ele>1616.4</ele>
        <time>2017-12-31T14:40:00Z</time>
      </trkpt>
      <trkpt lat="42.581539" lon="0.029539">
        <ele>1614.2</ele>
        <time>2017-12-31T14:40:11Z</time>
      </trkpt>
      <trkpt lat="42.581488" lon="0.029439">
        <ele>1612.2</ele>
        <time>2017-12-31T14:40:22Z</time>
      </trkpt>
      <trkpt lat="42.581415" lon="0.029386">
        <ele>1610.2</ele>
        <time>2017-12-31T14:40:32Z</time>
      </trkpt>
      <trkpt lat="42.581370" lon="0.029283">
        <ele>1608.8</ele>
        <time>2017-12-31T14:40:41Z</time>
      </trkpt>
      <trkpt lat="42.581309" lon="0.029203">
        <ele>1607.0</ele>
        <time>2017-12-31T14:40:50Z</time>
      </trkpt>
      <trkpt lat="42.581228" lon="0.029243">
        <ele>1604.7</ele>
        <time>2017-12-31T14:41:00Z</time>
      </trkpt>
      <trkpt lat="42.581155" lon="0.029225">
        <ele>1602.2</ele>
        <time>2017-12-31T14:41:12Z</time>
      </trkpt>
      <trkpt lat="42.581147" lon="0.029092">
        <ele>1599.7</ele>
        <time>2017-12-31T14:41:23Z</time>
      </trkpt>
      <trkpt lat="42.581123" lon="0.028973">
        <ele>1598.6</ele>
        <time>2017-12-31T14:41:31Z</time>
      </trkpt>
      <trkpt lat="42.581088" lon="0.028851">
        <ele>1597.1</ele>
        <time>2017-12-31T14:41:40Z</time>
      </trkpt>
      <trkpt lat="42.581076" lon="0.028726">
        <ele>1595.1</ele>
        <time>2017-12-31T14:41:48Z</time>
      </trkpt>
      <trkpt lat="42.581018" lon="0.028675">
        <ele>1593.1</ele>
        <time>2017-12-31T14:41:58Z</time>
      </trkpt>
      <trkpt lat="42.580943" lon="0.028696">
        <ele>1588.8</ele>
        <time>2017-12-31T14:43:19Z</time>
      </trkpt>
      <trkpt lat="42.580912" lon="0.028572">
        <ele>1588.5</ele>
        <time>2017-12-31T14:43:29Z</time>
      </trkpt>
      <trkpt lat="42.580880" lon="0.028445">
        <ele>1586.5</ele>
        <time>2017-12-31T14:43:39Z</time>
      </trkpt>
      <trkpt lat="42.580838" lon="0.028326">
        <ele>1584.0</ele>
        <time>2017-12-31T14:43:51Z</time>
      </trkpt>
      <trkpt lat="42.580833" lon="0.028208">
        <ele>1582.6</ele>
        <time>2017-12-31T14:44:01Z</time>
      </trkpt>
      <trkpt lat="42.580819" lon="0.028081">
        <ele>1581.5</ele>
        <time>2017-12-31T14:44:10Z</time>
      </trkpt>
      <trkpt lat="42.580793" lon="0.027956">
        <ele>1579.6</ele>
        <time>2017-12-31T14:44:20Z</time>
      </trkpt>
      <trkpt lat="42.580777" lon="0.027818">
        <ele>1577.4</ele>
        <time>2017-12-31T14:44:29Z</time>
      </trkpt>
      <trkpt lat="42.580774" lon="0.027691">
        <ele>1575.5</ele>
        <time>2017-12-31T14:44:38Z</time>
      </trkpt>
      <trkpt lat="42.580748" lon="0.027577">
        <ele>1574.9</ele>
        <time>2017-12-31T14:44:48Z</time>
      </trkpt>
      <trkpt lat="42.580746" lon="0.027440">
        <ele>1572.6</ele>
        <time>2017-12-31T14:44:58Z</time>
      </trkpt>
      <trkpt lat="42.580729" lon="0.027306">
        <ele>1570.4</ele>
        <time>2017-12-31T14:45:07Z</time>
      </trkpt>
      <trkpt lat="42.580712" lon="0.027182">
        <ele>1568.9</ele>
        <time>2017-12-31T14:45:17Z</time>
      </trkpt>
      <trkpt lat="42.580693" lon="0.027150">
        <ele>1564.7</ele>
        <time>2017-12-31T14:47:10Z</time>
      </trkpt>
      <trkpt lat="42.580627" lon="0.027227">
        <ele>1563.4</ele>
        <time>2017-12-31T14:47:21Z</time>
      </trkpt>
      <trkpt lat="42.580601" lon="0.027140">
        <ele>1561.2</ele>
        <time>2017-12-31T14:47:32Z</time>
      </trkpt>
      <trkpt lat="42.580597" lon="0.026999">
        <ele>1559.7</ele>
        <time>2017-12-31T14:47:44Z</time>
      </trkpt>
      <trkpt lat="42.580598" lon="0.026857">
        <ele>1558.5</ele>
        <time>2017-12-31T14:47:55Z</time>
      </trkpt>
      <trkpt lat="42.580565" lon="0.026735">
        <ele>1556.4</ele>
        <time>2017-12-31T14:48:06Z</time>
      </trkpt>
      <trkpt lat="42.580598" lon="0.026600">
        <ele>1554.5</ele>
        <time>2017-12-31T14:48:18Z</time>
      </trkpt>
      <trkpt lat="42.580606" lon="0.026431">
        <ele>1553.3</ele>
        <time>2017-12-31T14:48:26Z</time>
      </trkpt>
      <trkpt lat="42.580593" lon="0.026278">
        <ele>1552.3</ele>
        <time>2017-12-31T14:48:35Z</time>
      </trkpt>
      <trkpt lat="42.580560" lon="0.026164">
        <ele>1549.9</ele>
        <time>2017-12-31T14:48:45Z</time>
      </trkpt>
      <trkpt lat="42.580519" lon="0.026051">
        <ele>1547.6</ele>
        <time>2017-12-31T14:48:55Z</time>
      </trkpt>
      <trkpt lat="42.580491" lon="0.025912">
        <ele>1545.1</ele>
        <time>2017-12-31T14:49:05Z</time>
      </trkpt>
      <trkpt lat="42.580483" lon="0.025779">
        <ele>1543.0</ele>
        <time>2017-12-31T14:49:14Z</time>
      </trkpt>
      <trkpt lat="42.580481" lon="0.025652">
        <ele>1541.3</ele>
        <time>2017-12-31T14:49:23Z</time>
      </trkpt>
      <trkpt lat="42.580463" lon="0.025519">
        <ele>1540.0</ele>
        <time>2017-12-31T14:49:34Z</time>
      </trkpt>
      <trkpt lat="42.580460" lon="0.025395">
        <ele>1538.7</ele>
        <time>2017-12-31T14:49:43Z</time>
      </trkpt>
      <trkpt lat="42.580454" lon="0.025266">
        <ele>1537.6</ele>
        <time>2017-12-31T14:49:55Z</time>
      </trkpt>
      <trkpt lat="42.580446" lon="0.025125">
        <ele>1536.1</ele>
        <time>2017-12-31T14:50:06Z</time>
      </trkpt>
      <trkpt lat="42.580437" lon="0.024996">
        <ele>1534.3</ele>
        <time>2017-12-31T14:50:18Z</time>
      </trkpt>
      <trkpt lat="42.580441" lon="0.024863">
        <ele>1532.2</ele>
        <time>2017-12-31T14:50:28Z</time>
      </trkpt>
      <trkpt lat="42.580429" lon="0.024724">
        <ele>1530.4</ele>
        <time>2017-12-31T14:50:40Z</time>
      </trkpt>
      <trkpt lat="42.580439" lon="0.024597">
        <ele>1528.9</ele>
        <time>2017-12-31T14:50:49Z</time>
      </trkpt>
      <trkpt lat="42.580456" lon="0.024478">
        <ele>1526.7</ele>
        <time>2017-12-31T14:51:03Z</time>
      </trkpt>
      <trkpt lat="42.580459" lon="0.024335">
        <ele>1524.9</ele>
        <time>2017-12-31T14:51:14Z</time>
      </trkpt>
      <trkpt lat="42.580419" lon="0.024200">
        <ele>1523.5</ele>
        <time>2017-12-31T14:51:25Z</time>
      </trkpt>
      <trkpt lat="42.580411" lon="0.024077">
        <ele>1521.2</ele>
        <time>2017-12-31T14:51:36Z</time>
      </trkpt>
      <trkpt lat="42.580416" lon="0.023957">
        <ele>1519.7</ele>
        <time>2017-12-31T14:51:48Z</time>
      </trkpt>
      <trkpt lat="42.580385" lon="0.023826">
        <ele>1517.7</ele>
        <time>2017-12-31T14:52:02Z</time>
      </trkpt>
      <trkpt lat="42.580387" lon="0.023681">
        <ele>1516.2</ele>
        <time>2017-12-31T14:52:11Z</time>
      </trkpt>
      <trkpt lat="42.580418" lon="0.023541">
        <ele>1515.1</ele>
        <time>2017-12-31T14:52:21Z</time>
      </trkpt>
      <trkpt lat="42.580454" lon="0.023427">
        <ele>1514.5</ele>
        <time>2017-12-31T14:52:30Z</time>
      </trkpt>
      <trkpt lat="42.580483" lon="0.023301">
        <ele>1514.0</ele>
        <time>2017-12-31T14:52:39Z</time>
      </trkpt>
      <trkpt lat="42.580512" lon="0.023168">
        <ele>1513.2</ele>
        <time>2017-12-31T14:52:48Z</time>
      </trkpt>
      <trkpt lat="42.580531" lon="0.023057">
        <ele>1512.8</ele>
        <time>2017-12-31T14:52:56Z</time>
      </trkpt>
      <trkpt lat="42.580570" lon="0.022939">
        <ele>1512.0</ele>
        <time>2017-12-31T14:53:06Z</time>
      </trkpt>
      <trkpt lat="42.580599" lon="0.022788">
        <ele>1511.0</ele>
        <time>2017-12-31T14:53:19Z</time>
      </trkpt>
      <trkpt lat="42.580621" lon="0.022653">
        <ele>1510.3</ele>
        <time>2017-12-31T14:53:29Z</time>
      </trkpt>
      <trkpt lat="42.580638" lon="0.022510">
        <ele>1509.3</ele>
        <time>2017-12-31T14:53:37Z</time>
      </trkpt>
      <trkpt lat="42.580657" lon="0.022400">
        <ele>1508.0</ele>
        <time>2017-12-31T14:53:46Z</time>
      </trkpt>
      <trkpt lat="42.580636" lon="0.022280">
        <ele>1505.1</ele>
        <time>2017-12-31T14:54:00Z</time>
      </trkpt>
      <trkpt lat="42.580605" lon="0.022179">
        <ele>1502.7</ele>
        <time>2017-12-31T14:54:11Z</time>
      </trkpt>
      <trkpt lat="42.580595" lon="0.022039">
        <ele>1500.2</ele>
        <time>2017-12-31T14:54:22Z</time>
      </trkpt>
      <trkpt lat="42.580649" lon="0.021941">
        <ele>1498.2</ele>
        <time>2017-12-31T14:54:33Z</time>
      </trkpt>
      <trkpt lat="42.580657" lon="0.021815">
        <ele>1497.2</ele>
        <time>2017-12-31T14:54:42Z</time>
      </trkpt>
      <trkpt lat="42.580630" lon="0.021684">
        <ele>1496.6</ele>
        <time>2017-12-31T14:54:51Z</time>
      </trkpt>
      <trkpt lat="42.580589" lon="0.021575">
        <ele>1495.9</ele>
        <time>2017-12-31T14:54:59Z</time>
      </trkpt>
      <trkpt lat="42.580568" lon="0.021465">
        <ele>1494.4</ele>
        <time>2017-12-31T14:55:11Z</time>
      </trkpt>
      <trkpt lat="42.580569" lon="0.021344">
        <ele>1493.3</ele>
        <time>2017-12-31T14:55:19Z</time>
      </trkpt>
      <trkpt lat="42.580570" lon="0.021227">
        <ele>1492.8</ele>
        <time>2017-12-31T14:55:27Z</time>
      </trkpt>
      <trkpt lat="42.580530" lon="0.021122">
        <ele>1491.1</ele>
        <time>2017-12-31T14:55:39Z</time>
      </trkpt>
      <trkpt lat="42.580513" lon="0.021011">
        <ele>1488.8</ele>
        <time>2017-12-31T14:55:49Z</time>
      </trkpt>
      <trkpt lat="42.580503" lon="0.020893">
        <ele>1487.0</ele>
        <time>2017-12-31T14:56:00Z</time>
      </trkpt>
      <trkpt lat="42.580464" lon="0.020777">
        <ele>1485.2</ele>
        <time>2017-12-31T14:56:11Z</time>
      </trkpt>
      <trkpt lat="42.580494" lon="0.020663">
        <ele>1483.8</ele>
        <time>2017-12-31T14:56:20Z</time>
      </trkpt>
      <trkpt lat="42.580521" lon="0.020553">
        <ele>1482.8</ele>
        <time>2017-12-31T14:56:29Z</time>
      </trkpt>
      <trkpt lat="42.580555" lon="0.020436">
        <ele>1481.3</ele>
        <time>2017-12-31T14:56:43Z</time>
      </trkpt>
      <trkpt lat="42.580517" lon="0.020310">
        <ele>1479.5</ele>
        <time>2017-12-31T14:56:52Z</time>
      </trkpt>
      <trkpt lat="42.580492" lon="0.020194">
        <ele>1478.3</ele>
        <time>2017-12-31T14:57:00Z</time>
      </trkpt>
      <trkpt lat="42.580467" lon="0.020081">
        <ele>1477.0</ele>
        <time>2017-12-31T14:57:08Z</time>
      </trkpt>
      <trkpt lat="42.580442" lon="0.019966">
        <ele>1475.7</ele>
        <time>2017-12-31T14:57:16Z</time>
      </trkpt>
      <trkpt lat="42.580385" lon="0.019995">
        <ele>1473.8</ele>
        <time>2017-12-31T14:57:24Z</time>
      </trkpt>
      <trkpt lat="42.580312" lon="0.020062">
        <ele>1471.6</ele>
        <time>2017-12-31T14:57:33Z</time>
      </trkpt>
      <trkpt lat="42.580240" lon="0.020121">
        <ele>1468.3</ele>
        <time>2017-12-31T14:57:45Z</time>
      </trkpt>
      <trkpt lat="42.580216" lon="0.020165">
        <ele>1465.3</ele>
        <time>2017-12-31T14:57:58Z</time>
      </trkpt>
      <trkpt lat="42.580149" lon="0.020117">
        <ele>1462.3</ele>
        <time>2017-12-31T14:58:10Z</time>
      </trkpt>
      <trkpt lat="42.580100" lon="0.020010">
        <ele>1459.7</ele>
        <time>2017-12-31T14:58:20Z</time>
      </trkpt>
      <trkpt lat="42.580098" lon="0.019890">
        <ele>1457.2</ele>
        <time>2017-12-31T14:58:31Z</time>
      </trkpt>
      <trkpt lat="42.580054" lon="0.019797">
        <ele>1454.8</ele>
        <time>2017-12-31T14:58:43Z</time>
      </trkpt>
      <trkpt lat="42.579977" lon="0.019882">
        <ele>1452.7</ele>
        <time>2017-12-31T14:58:54Z</time>
      </trkpt>
      <trkpt lat="42.579919" lon="0.019996">
        <ele>1450.8</ele>
        <time>2017-12-31T14:59:06Z</time>
      </trkpt>
      <trkpt lat="42.579886" lon="0.019924">
        <ele>1448.8</ele>
        <time>2017-12-31T14:59:19Z</time>
      </trkpt>
      <trkpt lat="42.579909" lon="0.019795">
        <ele>1447.3</ele>
        <time>2017-12-31T14:59:29Z</time>
      </trkpt>
      <trkpt lat="42.579923" lon="0.019675">
        <ele>1445.7</ele>
        <time>2017-12-31T14:59:37Z</time>
      </trkpt>
      <trkpt lat="42.579914" lon="0.019548">
        <ele>1443.7</ele>
        <time>2017-12-31T14:59:47Z</time>
      </trkpt>
      <trkpt lat="42.579896" lon="0.019428">
        <ele>1441.6</ele>
        <time>2017-12-31T14:59:56Z</time>
      </trkpt>
      <trkpt lat="42.579875" lon="0.019296">
        <ele>1439.7</ele>
        <time>2017-12-31T15:00:06Z</time>
      </trkpt>
      <trkpt lat="42.579845" lon="0.019184">
        <ele>1438.2</ele>
        <time>2017-12-31T15:00:16Z</time>
      </trkpt>
      <trkpt lat="42.579811" lon="0.019065">
        <ele>1435.9</ele>
        <time>2017-12-31T15:00:25Z</time>
      </trkpt>
      <trkpt lat="42.579770" lon="0.018962">
        <ele>1433.7</ele>
        <time>2017-12-31T15:00:33Z</time>
      </trkpt>
      <trkpt lat="42.579661" lon="0.019004">
        <ele>1432.0</ele>
        <time>2017-12-31T15:00:42Z</time>
      </trkpt>
      <trkpt lat="42.579576" lon="0.018982">
        <ele>1430.0</ele>
        <time>2017-12-31T15:00:52Z</time>
      </trkpt>
      <trkpt lat="42.579487" lon="0.018949">
        <ele>1426.9</ele>
        <time>2017-12-31T15:01:05Z</time>
      </trkpt>
      <trkpt lat="42.579403" lon="0.018813">
        <ele>1421.9</ele>
        <time>2017-12-31T15:09:01Z</time>
      </trkpt>
      <trkpt lat="42.579422" lon="0.018705">
        <ele>1419.5</ele>
        <time>2017-12-31T15:09:16Z</time>
      </trkpt>
      <trkpt lat="42.579407" lon="0.018613">
        <ele>1416.7</ele>
        <time>2017-12-31T15:09:58Z</time>
      </trkpt>
      <trkpt lat="42.579338" lon="0.018530">
        <ele>1412.6</ele>
        <time>2017-12-31T15:10:17Z</time>
      </trkpt>
      <trkpt lat="42.579289" lon="0.018437">
        <ele>1410.4</ele>
        <time>2017-12-31T15:10:27Z</time>
      </trkpt>
      <trkpt lat="42.579207" lon="0.018352">
        <ele>1407.0</ele>
        <time>2017-12-31T15:10:39Z</time>
      </trkpt>
      <trkpt lat="42.579157" lon="0.018320">
        <ele>1403.3</ele>
        <time>2017-12-31T15:10:50Z</time>
      </trkpt>
      <trkpt lat="42.579072" lon="0.018386">
        <ele>1400.8</ele>
        <time>2017-12-31T15:10:59Z</time>
      </trkpt>
      <trkpt lat="42.578988" lon="0.018450">
        <ele>1398.9</ele>
        <time>2017-12-31T15:11:08Z</time>
      </trkpt>
      <trkpt lat="42.578916" lon="0.018490">
        <ele>1397.4</ele>
        <time>2017-12-31T15:11:21Z</time>
      </trkpt>
      <trkpt lat="42.578848" lon="0.018591">
        <ele>1395.2</ele>
        <time>2017-12-31T15:11:30Z</time>
      </trkpt>
      <trkpt lat="42.578764" lon="0.018588">
        <ele>1392.4</ele>
        <time>2017-12-31T15:11:40Z</time>
      </trkpt>
      <trkpt lat="42.578681" lon="0.018530">
        <ele>1388.3</ele>
        <time>2017-12-31T15:11:51Z</time>
      </trkpt>
      <trkpt lat="42.578573" lon="0.018546">
        <ele>1385.2</ele>
        <time>2017-12-31T15:11:59Z</time>
      </trkpt>
      <trkpt lat="42.578476" lon="0.018484">
        <ele>1382.1</ele>
        <time>2017-12-31T15:12:08Z</time>
      </trkpt>
      <trkpt lat="42.578397" lon="0.018518">
        <ele>1379.3</ele>
        <time>2017-12-31T15:12:20Z</time>
      </trkpt>
      <trkpt lat="42.578306" lon="0.018544">
        <ele>1377.1</ele>
        <time>2017-12-31T15:12:28Z</time>
      </trkpt>
      <trkpt lat="42.578256" lon="0.018458">
        <ele>1374.4</ele>
        <time>2017-12-31T15:12:37Z</time>
      </trkpt>
      <trkpt lat="42.578200" lon="0.018339">
        <ele>1372.0</ele>
        <time>2017-12-31T15:12:44Z</time>
      </trkpt>
      <trkpt lat="42.578144" lon="0.018245">
        <ele>1369.7</ele>
        <time>2017-12-31T15:12:51Z</time>
      </trkpt>
      <trkpt lat="42.578142" lon="0.018135">
        <ele>1366.4</ele>
        <time>2017-12-31T15:13:00Z</time>
      </trkpt>
      <trkpt lat="42.578103" lon="0.018020">
        <ele>1362.9</ele>
        <time>2017-12-31T15:13:09Z</time>
      </trkpt>
      <trkpt lat="42.578121" lon="0.017932">
        <ele>1359.3</ele>
        <time>2017-12-31T15:13:59Z</time>
      </trkpt>
    </trkseg>
  </trk>
</gpx>

